Time,TemperatureF,DewpointF,PressureIn,WindDirection,WindDirectionDegrees,WindSpeedMPH,WindSpeedGustMPH,Humidity,HourlyPrecipIn,Conditions,Clouds,dailyrainin,SoftwareType,DateUTC
2013-03-28 00:02:00,49.5,45.8,30.00,ENE,68,0.0,2.0,87,0.12,,OVC031,0.00,VWS V14.00,2013-03-28 07:02:00,
2013-03-28 00:03:00,49.5,45.8,30.00,ENE,68,0.0,2.0,87,0.12,,OVC031,0.00,VWS V14.00,2013-03-28 07:03:00,
2013-03-28 00:07:00,49.5,46.1,30.00,ENE,68,0.0,2.0,88,0.12,,OVC031,0.00,VWS V14.00,2013-03-28 07:07:00,
2013-03-28 00:08:00,49.5,46.1,30.00,ENE,68,0.0,2.0,88,0.12,,OVC031,0.00,VWS V14.00,2013-03-28 07:08:00,
2013-03-28 00:12:00,49.5,46.1,30.00,ENE,68,0.0,2.0,88,0.16,,OVC031,0.04,VWS V14.00,2013-03-28 07:12:00,
2013-03-28 00:13:00,49.5,46.1,30.00,NW,315,0.0,2.0,88,0.16,,OVC031,0.04,VWS V14.00,2013-03-28 07:13:00,
2013-03-28 00:17:00,49.3,45.9,30.00,NW,315,0.0,0.0,88,0.16,,OVC031,0.04,VWS V14.00,2013-03-28 07:17:00,
2013-03-28 00:18:00,49.3,45.9,30.00,NW,315,0.0,0.0,88,0.12,,OVC031,0.04,VWS V14.00,2013-03-28 07:18:00,
2013-03-28 00:23:00,49.3,45.9,30.00,NW,315,0.0,0.0,88,0.12,,OVC031,0.04,VWS V14.00,2013-03-28 07:23:00,
2013-03-28 00:28:00,49.1,45.7,30.00,ENE,68,0.0,0.0,88,0.12,,OVC031,0.04,VWS V14.00,2013-03-28 07:28:00,
2013-03-28 00:29:00,49.1,45.7,30.00,ENE,68,0.0,0.0,88,0.12,,OVC031,0.04,VWS V14.00,2013-03-28 07:29:00,
2013-03-28 00:33:00,49.1,45.7,30.00,ENE,68,0.0,0.0,88,0.12,,OVC047,0.04,VWS V14.00,2013-03-28 07:33:00,
2013-03-28 00:38:00,48.9,45.5,30.00,ENE,68,0.0,0.0,88,0.12,,OVC047,0.04,VWS V14.00,2013-03-28 07:38:00,
2013-03-28 00:39:00,48.9,45.5,30.00,ENE,68,0.0,0.0,88,0.12,,OVC047,0.04,VWS V14.00,2013-03-28 07:39:00,
2013-03-28 00:43:00,48.7,45.3,30.00,ENE,68,0.0,0.0,88,0.12,,OVC047,0.04,VWS V14.00,2013-03-28 07:43:00,
2013-03-28 00:44:00,48.7,45.3,30.00,ENE,68,0.0,0.0,88,0.12,,OVC047,0.04,VWS V14.00,2013-03-28 07:44:00,
2013-03-28 00:48:00,48.7,45.3,30.00,ENE,68,0.0,0.0,88,0.12,,OVC034,0.04,VWS V14.00,2013-03-28 07:48:00,
2013-03-28 00:49:00,48.7,45.3,30.00,ESE,112,0.0,0.0,88,0.12,,OVC034,0.04,VWS V14.00,2013-03-28 07:49:00,
2013-03-28 00:53:00,48.7,45.3,30.00,ESE,112,0.0,0.0,88,0.08,,OVC034,0.04,VWS V14.00,2013-03-28 07:53:00,
2013-03-28 00:54:00,48.7,45.3,30.00,ESE,112,0.0,0.0,88,0.08,,OVC034,0.04,VWS V14.00,2013-03-28 07:54:00,
2013-03-28 00:58:00,48.7,45.3,30.00,ESE,112,0.0,0.0,88,0.04,,OVC034,0.04,VWS V14.00,2013-03-28 07:58:00,
2013-03-28 00:59:00,48.7,45.7,30.00,ESE,112,0.0,0.0,89,0.04,,OVC034,0.04,VWS V14.00,2013-03-28 07:59:00,
2013-03-28 01:03:00,48.7,45.7,30.00,ESE,112,0.0,0.0,89,0.04,,OVC034,0.04,VWS V14.00,2013-03-28 08:03:00,
2013-03-28 01:04:00,48.7,45.7,30.00,ESE,112,0.0,0.0,89,0.04,,OVC034,0.04,VWS V14.00,2013-03-28 08:04:00,
2013-03-28 01:08:00,48.7,45.7,30.00,East,90,0.0,0.0,89,0.04,,OVC034,0.04,VWS V14.00,2013-03-28 08:08:00,
2013-03-28 01:09:00,48.7,45.7,30.00,East,90,0.0,0.0,89,0.04,,OVC034,0.04,VWS V14.00,2013-03-28 08:09:00,
2013-03-28 01:13:00,48.7,45.7,30.00,ESE,112,0.0,0.0,89,0.00,,OVC034,0.04,VWS V14.00,2013-03-28 08:13:00,
2013-03-28 01:14:00,48.7,45.7,30.00,ESE,112,0.0,0.0,89,0.00,,OVC034,0.04,VWS V14.00,2013-03-28 08:14:00,
2013-03-28 01:18:00,48.7,45.9,30.00,ESE,112,0.0,0.0,90,0.00,,OVC034,0.04,VWS V14.00,2013-03-28 08:18:00,
2013-03-28 01:19:00,48.7,45.9,30.00,ESE,112,0.0,0.0,90,0.00,,OVC034,0.04,VWS V14.00,2013-03-28 08:19:00,
2013-03-28 01:23:00,48.6,45.5,30.00,ESE,112,0.0,0.0,89,0.00,,OVC034,0.04,VWS V14.00,2013-03-28 08:23:00,
2013-03-28 01:24:00,48.6,45.5,30.00,ESE,112,0.0,0.0,89,0.00,,OVC034,0.04,VWS V14.00,2013-03-28 08:24:00,
2013-03-28 01:28:00,48.6,45.5,30.00,ESE,112,0.0,0.0,89,0.00,,OVC034,0.04,VWS V14.00,2013-03-28 08:28:00,
2013-03-28 01:29:00,48.6,45.5,30.00,ESE,112,0.0,0.0,89,0.00,,OVC034,0.04,VWS V14.00,2013-03-28 08:29:00,
2013-03-28 01:33:00,48.7,45.7,30.00,ESE,112,0.0,0.0,89,0.00,,OVC055,0.04,VWS V14.00,2013-03-28 08:33:00,
2013-03-28 01:34:00,48.7,45.7,30.00,ESE,112,0.0,0.0,89,0.00,,OVC055,0.04,VWS V14.00,2013-03-28 08:34:00,
2013-03-28 01:38:00,48.6,45.5,30.00,ESE,112,0.0,0.0,89,0.00,,OVC055,0.04,VWS V14.00,2013-03-28 08:38:00,
2013-03-28 01:39:00,48.6,45.5,30.00,ESE,112,0.0,0.0,89,0.00,,OVC055,0.04,VWS V14.00,2013-03-28 08:39:00,
2013-03-28 01:43:00,48.6,45.8,30.00,ESE,112,0.0,0.0,90,0.00,,OVC055,0.04,VWS V14.00,2013-03-28 08:43:00,
2013-03-28 01:44:00,48.6,45.8,30.00,ESE,112,0.0,0.0,90,0.00,,OVC055,0.04,VWS V14.00,2013-03-28 08:44:00,
2013-03-28 01:48:00,48.6,45.8,30.00,ENE,68,0.0,0.0,90,0.00,,OVC030,0.04,VWS V14.00,2013-03-28 08:48:00,
2013-03-28 01:49:00,48.6,45.8,30.00,ENE,68,0.0,0.0,90,0.00,,OVC030,0.04,VWS V14.00,2013-03-28 08:49:00,
2013-03-28 01:53:00,48.4,45.6,30.00,ENE,68,0.0,0.0,90,0.00,,OVC030,0.04,VWS V14.00,2013-03-28 08:53:00,
2013-03-28 01:54:00,48.4,45.6,30.00,ENE,68,0.0,0.0,90,0.00,,OVC030,0.04,VWS V14.00,2013-03-28 08:54:00,
2013-03-28 01:58:00,48.2,45.4,30.00,ESE,112,0.0,0.0,90,0.00,,OVC030,0.04,VWS V14.00,2013-03-28 08:58:00,
2013-03-28 01:59:00,48.2,45.4,30.00,ESE,112,0.0,0.0,90,0.00,,OVC030,0.04,VWS V14.00,2013-03-28 08:59:00,
2013-03-28 02:03:00,48.0,45.5,30.00,ESE,112,0.0,0.0,91,0.00,,OVC030,0.04,VWS V14.00,2013-03-28 09:03:00,
2013-03-28 02:04:00,48.0,45.5,30.00,ESE,112,0.0,0.0,91,0.00,,OVC030,0.04,VWS V14.00,2013-03-28 09:04:00,
2013-03-28 02:05:00,48.0,45.5,30.00,ESE,112,0.0,0.0,91,0.00,,OVC030,0.04,VWS V14.00,2013-03-28 09:05:00,
2013-03-28 02:08:00,48.0,45.2,30.00,ESE,112,0.0,0.0,90,0.00,,OVC030,0.04,VWS V14.00,2013-03-28 09:08:00,
2013-03-28 02:09:00,48.0,45.2,30.00,ESE,112,0.0,0.0,90,0.00,,OVC030,0.04,VWS V14.00,2013-03-28 09:09:00,
2013-03-28 02:10:00,48.0,45.2,30.00,ESE,112,0.0,0.0,90,0.00,,OVC030,0.04,VWS V14.00,2013-03-28 09:10:00,
2013-03-28 02:13:00,47.8,45.3,30.00,SE,135,0.0,0.0,91,0.00,,OVC030,0.04,VWS V14.00,2013-03-28 09:13:00,
2013-03-28 02:14:00,47.8,45.3,30.00,SE,135,0.0,0.0,91,0.00,,OVC030,0.04,VWS V14.00,2013-03-28 09:14:00,
2013-03-28 02:15:00,47.8,45.3,30.00,SE,135,0.0,0.0,91,0.00,,OVC030,0.04,VWS V14.00,2013-03-28 09:15:00,
2013-03-28 02:18:00,48.0,45.5,30.00,SE,135,0.0,0.0,91,0.00,,OVC030,0.04,VWS V14.00,2013-03-28 09:18:00,
2013-03-28 02:19:00,48.0,45.5,30.00,SE,135,0.0,0.0,91,0.00,,OVC030,0.04,VWS V14.00,2013-03-28 09:19:00,
2013-03-28 02:20:00,48.0,45.5,30.00,SE,135,0.0,0.0,91,0.00,,OVC030,0.04,VWS V14.00,2013-03-28 09:20:00,
2013-03-28 02:24:00,48.0,45.5,30.00,SE,135,0.0,0.0,91,0.00,,OVC030,0.04,VWS V14.00,2013-03-28 09:24:00,
2013-03-28 02:25:00,48.0,45.5,30.00,SE,135,0.0,0.0,91,0.00,,OVC030,0.04,VWS V14.00,2013-03-28 09:25:00,
2013-03-28 02:29:00,48.2,45.7,30.00,ESE,112,0.0,0.0,91,0.00,,OVC030,0.04,VWS V14.00,2013-03-28 09:29:00,
2013-03-28 02:30:00,48.2,45.7,30.00,ESE,112,0.0,0.0,91,0.00,,OVC030,0.04,VWS V14.00,2013-03-28 09:30:00,
2013-03-28 02:34:00,48.2,45.7,30.00,ESE,112,0.0,0.0,91,0.00,,OVC100,0.04,VWS V14.00,2013-03-28 09:34:00,
2013-03-28 02:35:00,48.2,45.7,30.00,ESE,112,0.0,0.0,91,0.00,,OVC100,0.04,VWS V14.00,2013-03-28 09:35:00,
2013-03-28 02:39:00,48.2,45.7,30.00,East,90,0.0,0.0,91,0.00,,OVC100,0.04,VWS V14.00,2013-03-28 09:39:00,
2013-03-28 02:40:00,48.2,45.7,30.00,East,90,0.0,0.0,91,0.00,,OVC100,0.04,VWS V14.00,2013-03-28 09:40:00,
2013-03-28 02:44:00,48.2,45.7,30.00,East,90,0.0,0.0,91,0.00,,OVC100,0.04,VWS V14.00,2013-03-28 09:44:00,
2013-03-28 02:45:00,48.2,45.7,30.00,East,90,0.0,0.0,91,0.00,,OVC100,0.04,VWS V14.00,2013-03-28 09:45:00,
2013-03-28 02:49:00,48.2,45.7,30.00,East,90,0.0,0.0,91,0.00,,OVC027,0.04,VWS V14.00,2013-03-28 09:49:00,
2013-03-28 02:50:00,48.2,45.7,30.00,East,90,0.0,0.0,91,0.00,,OVC027,0.04,VWS V14.00,2013-03-28 09:50:00,
2013-03-28 02:54:00,48.2,45.7,30.00,NE,45,0.0,0.0,91,0.00,,OVC027,0.04,VWS V14.00,2013-03-28 09:54:00,
2013-03-28 02:55:00,48.2,46.0,30.00,NE,45,0.0,0.0,92,0.00,,OVC027,0.04,VWS V14.00,2013-03-28 09:55:00,
2013-03-28 02:59:00,48.0,45.8,30.00,NE,45,0.0,0.0,92,0.00,,OVC027,0.04,VWS V14.00,2013-03-28 09:59:00,
2013-03-28 03:00:00,48.0,45.8,30.00,NE,45,0.0,0.0,92,0.00,,OVC027,0.04,VWS V14.00,2013-03-28 10:00:00,
2013-03-28 03:04:00,48.0,45.8,30.00,NE,45,0.0,0.0,92,0.00,,OVC034,0.04,VWS V14.00,2013-03-28 10:04:00,
2013-03-28 03:05:00,48.0,45.8,30.00,NE,45,0.0,0.0,92,0.00,,OVC027,0.04,VWS V14.00,2013-03-28 10:05:00,
2013-03-28 03:09:00,48.0,45.8,30.00,NE,45,0.0,0.0,92,0.00,,OVC027,0.04,VWS V14.00,2013-03-28 10:09:00,
2013-03-28 03:10:00,48.0,45.8,30.00,NE,45,0.0,0.0,92,0.00,,OVC027,0.04,VWS V14.00,2013-03-28 10:10:00,
2013-03-28 03:14:00,48.0,45.8,30.00,NE,45,0.0,0.0,92,0.00,,OVC027,0.04,VWS V14.00,2013-03-28 10:14:00,
2013-03-28 03:15:00,48.0,45.8,30.00,NE,45,0.0,0.0,92,0.00,,OVC027,0.04,VWS V14.00,2013-03-28 10:15:00,
2013-03-28 03:19:00,48.0,45.8,30.00,NE,45,0.0,0.0,92,0.00,,OVC027,0.04,VWS V14.00,2013-03-28 10:19:00,
2013-03-28 03:20:00,48.0,45.8,30.00,NE,45,0.0,0.0,92,0.00,,OVC027,0.04,VWS V14.00,2013-03-28 10:20:00,
2013-03-28 03:24:00,48.2,46.0,30.00,NE,45,0.0,0.0,92,0.00,,OVC027,0.04,VWS V14.00,2013-03-28 10:24:00,
2013-03-28 03:25:00,48.2,46.0,30.00,NE,45,0.0,0.0,92,0.00,,OVC027,0.04,VWS V14.00,2013-03-28 10:25:00,
2013-03-28 03:29:00,48.2,46.0,30.00,NE,45,0.0,0.0,92,0.00,,OVC027,0.04,VWS V14.00,2013-03-28 10:29:00,
2013-03-28 03:30:00,48.2,46.0,30.00,NE,45,0.0,0.0,92,0.00,,OVC027,0.04,VWS V14.00,2013-03-28 10:30:00,
2013-03-28 03:34:00,48.2,46.0,30.00,NE,45,0.0,0.0,92,0.00,,OVC014,0.04,VWS V14.00,2013-03-28 10:34:00,
2013-03-28 03:35:00,48.2,46.0,30.00,ENE,68,0.0,0.0,92,0.00,,OVC014,0.04,VWS V14.00,2013-03-28 10:35:00,
2013-03-28 03:39:00,48.2,46.0,30.00,ENE,68,0.0,0.0,92,0.00,,OVC014,0.04,VWS V14.00,2013-03-28 10:39:00,
2013-03-28 03:40:00,48.2,46.0,30.00,ENE,68,0.0,0.0,92,0.00,,OVC014,0.04,VWS V14.00,2013-03-28 10:40:00,
2013-03-28 03:44:00,48.2,46.3,30.00,ENE,68,0.0,0.0,93,0.00,,OVC014,0.04,VWS V14.00,2013-03-28 10:44:00,
2013-03-28 03:45:00,48.2,46.3,30.00,ENE,68,0.0,0.0,93,0.00,,OVC014,0.04,VWS V14.00,2013-03-28 10:45:00,
2013-03-28 03:49:00,48.2,46.3,30.00,ENE,68,0.0,0.0,93,0.00,,OVC014,0.04,VWS V14.00,2013-03-28 10:49:00,
2013-03-28 03:50:00,48.2,46.3,30.00,ENE,68,0.0,0.0,93,0.00,,OVC014,0.04,VWS V14.00,2013-03-28 10:50:00,
2013-03-28 03:54:00,48.2,46.3,30.00,East,90,0.0,0.0,93,0.00,,OVC014,0.04,VWS V14.00,2013-03-28 10:54:00,
2013-03-28 03:55:00,48.2,46.3,30.00,East,90,0.0,0.0,93,0.00,,OVC014,0.04,VWS V14.00,2013-03-28 10:55:00,
2013-03-28 03:59:00,48.2,46.3,30.00,East,90,0.0,0.0,93,0.00,,OVC014,0.04,VWS V14.00,2013-03-28 10:59:00,
2013-03-28 04:00:00,48.2,46.3,30.00,East,90,0.0,0.0,93,0.00,,OVC014,0.04,VWS V14.00,2013-03-28 11:00:00,
2013-03-28 04:04:00,48.2,46.3,30.00,East,90,0.0,0.0,93,0.00,,OVC014,0.04,VWS V14.00,2013-03-28 11:04:00,
2013-03-28 04:05:00,48.2,46.3,30.00,East,90,0.0,0.0,93,0.00,,OVC014,0.04,VWS V14.00,2013-03-28 11:05:00,
2013-03-28 04:09:00,48.2,46.3,30.00,East,90,0.0,0.0,93,0.00,,OVC014,0.04,VWS V14.00,2013-03-28 11:09:00,
2013-03-28 04:10:00,48.2,46.3,30.00,East,90,0.0,0.0,93,0.00,,OVC014,0.04,VWS V14.00,2013-03-28 11:10:00,
2013-03-28 04:14:00,48.2,46.0,30.00,East,90,0.0,0.0,92,0.00,,OVC014,0.04,VWS V14.00,2013-03-28 11:14:00,
2013-03-28 04:15:00,48.2,46.0,30.00,East,90,0.0,0.0,92,0.00,,OVC014,0.04,VWS V14.00,2013-03-28 11:15:00,
2013-03-28 04:16:00,48.2,46.0,30.00,East,90,0.0,0.0,92,0.00,,OVC014,0.04,VWS V14.00,2013-03-28 11:16:00,
2013-03-28 04:20:00,48.0,46.1,30.00,East,90,0.0,0.0,93,0.00,,OVC014,0.04,VWS V14.00,2013-03-28 11:20:00,
2013-03-28 04:21:00,48.0,46.1,30.00,East,90,0.0,0.0,93,0.00,,OVC014,0.04,VWS V14.00,2013-03-28 11:21:00,
2013-03-28 04:25:00,48.0,46.1,30.00,East,90,0.0,0.0,93,0.00,,OVC014,0.04,VWS V14.00,2013-03-28 11:25:00,
2013-03-28 04:26:00,48.0,46.1,30.00,East,90,0.0,0.0,93,0.00,,OVC014,0.04,VWS V14.00,2013-03-28 11:26:00,
2013-03-28 04:30:00,48.0,46.1,30.00,East,90,0.0,0.0,93,0.00,,OVC014,0.04,VWS V14.00,2013-03-28 11:30:00,
2013-03-28 04:31:00,48.0,46.1,30.00,East,90,0.0,0.0,93,0.00,,OVC014,0.04,VWS V14.00,2013-03-28 11:31:00,
2013-03-28 04:35:00,48.0,46.1,30.00,ENE,68,0.0,0.0,93,0.00,,OVC026,0.04,VWS V14.00,2013-03-28 11:35:00,
2013-03-28 04:36:00,48.0,46.1,30.00,ENE,68,0.0,0.0,93,0.00,,OVC026,0.04,VWS V14.00,2013-03-28 11:36:00,
2013-03-28 04:40:00,48.0,46.1,30.00,ENE,68,0.0,0.0,93,0.00,,OVC026,0.04,VWS V14.00,2013-03-28 11:40:00,
2013-03-28 04:41:00,48.0,46.1,30.00,ENE,68,0.0,0.0,93,0.00,,OVC026,0.04,VWS V14.00,2013-03-28 11:41:00,
2013-03-28 04:45:00,48.0,46.1,30.00,ENE,68,0.0,0.0,93,0.00,,OVC026,0.04,VWS V14.00,2013-03-28 11:45:00,
2013-03-28 04:46:00,48.0,46.1,30.00,ENE,68,0.0,0.0,93,0.00,,OVC026,0.04,VWS V14.00,2013-03-28 11:46:00,
2013-03-28 04:50:00,48.0,46.1,30.00,East,90,0.0,2.5,93,0.00,,OVC100,0.04,VWS V14.00,2013-03-28 11:50:00,
2013-03-28 04:52:00,48.0,46.1,30.00,East,90,0.0,2.5,93,0.00,,OVC100,0.04,VWS V14.00,2013-03-28 11:52:00,
2013-03-28 04:55:00,48.0,46.1,30.00,East,90,0.0,2.5,93,0.00,,OVC100,0.04,VWS V14.00,2013-03-28 11:55:00,
2013-03-28 04:57:00,48.0,46.1,30.00,East,90,0.0,2.5,93,0.00,,OVC100,0.04,VWS V14.00,2013-03-28 11:57:00,
2013-03-28 05:00:00,48.0,46.1,30.00,ENE,68,0.0,0.0,93,0.00,,OVC100,0.04,VWS V14.00,2013-03-28 12:00:00,
2013-03-28 05:02:00,48.0,46.4,30.00,ENE,68,0.0,0.0,94,0.00,,OVC100,0.04,VWS V14.00,2013-03-28 12:02:00,
2013-03-28 05:05:00,48.0,46.4,30.00,WNW,292,0.0,0.0,94,0.00,,OVC100,0.04,VWS V14.00,2013-03-28 12:05:00,
2013-03-28 05:07:00,48.0,46.4,30.00,West,270,0.0,0.0,94,0.00,,OVC100,0.04,VWS V14.00,2013-03-28 12:07:00,
2013-03-28 05:10:00,48.0,46.4,30.00,WSW,248,0.0,0.0,94,0.00,,OVC100,0.04,VWS V14.00,2013-03-28 12:10:00,
2013-03-28 05:12:00,48.0,46.4,30.00,WSW,248,0.0,0.0,94,0.00,,OVC100,0.04,VWS V14.00,2013-03-28 12:12:00,
2013-03-28 05:15:00,48.0,46.4,30.00,ESE,112,0.0,0.0,94,0.00,,OVC100,0.04,VWS V14.00,2013-03-28 12:15:00,
2013-03-28 05:16:00,48.0,46.4,30.00,ESE,112,0.0,0.0,94,0.00,,OVC100,0.04,VWS V14.00,2013-03-28 12:16:00,
2013-03-28 05:17:00,48.0,46.4,30.00,SSE,158,0.0,0.0,94,0.00,,OVC100,0.04,VWS V14.00,2013-03-28 12:17:00,
2013-03-28 05:20:00,47.8,46.2,30.00,SE,135,0.9,0.9,94,0.00,,OVC100,0.04,VWS V14.00,2013-03-28 12:20:00,
2013-03-28 05:21:00,47.8,46.2,30.00,West,270,0.0,0.9,94,0.00,,OVC100,0.04,VWS V14.00,2013-03-28 12:21:00,
2013-03-28 05:22:00,47.8,46.2,30.00,SW,225,0.0,0.9,94,0.00,,OVC100,0.04,VWS V14.00,2013-03-28 12:22:00,
2013-03-28 05:25:00,47.8,46.2,30.00,ESE,112,0.0,0.9,94,0.00,,OVC100,0.04,VWS V14.00,2013-03-28 12:25:00,
2013-03-28 05:26:00,48.0,46.4,30.00,ESE,112,0.0,0.9,94,0.00,,OVC100,0.04,VWS V14.00,2013-03-28 12:26:00,
2013-03-28 05:27:00,48.0,46.4,30.00,ENE,68,0.0,0.9,94,0.00,,OVC100,0.04,VWS V14.00,2013-03-28 12:27:00,
2013-03-28 05:30:00,48.0,46.4,30.00,ENE,68,0.0,0.9,94,0.00,,OVC100,0.04,VWS V14.00,2013-03-28 12:30:00,
2013-03-28 05:31:00,48.0,46.4,30.00,ENE,68,0.0,0.9,94,0.00,,OVC100,0.04,VWS V14.00,2013-03-28 12:31:00,
2013-03-28 05:32:00,48.0,46.4,30.00,ENE,68,0.0,0.9,94,0.00,,OVC060,0.04,VWS V14.00,2013-03-28 12:32:00,
2013-03-28 05:35:00,48.0,46.4,30.00,ENE,68,0.0,0.9,94,0.00,,OVC060,0.04,VWS V14.00,2013-03-28 12:35:00,
2013-03-28 05:36:00,48.0,46.4,30.00,ENE,68,0.0,0.9,94,0.00,,OVC060,0.04,VWS V14.00,2013-03-28 12:36:00,
2013-03-28 05:37:00,48.0,46.4,30.00,WNW,292,0.0,0.9,94,0.00,,OVC060,0.04,VWS V14.00,2013-03-28 12:37:00,
2013-03-28 05:40:00,47.8,46.2,30.00,WSW,248,0.0,0.0,94,0.00,,OVC060,0.04,VWS V14.00,2013-03-28 12:40:00,
2013-03-28 05:41:00,47.8,46.2,30.00,WSW,248,0.0,0.0,94,0.00,,OVC060,0.04,VWS V14.00,2013-03-28 12:41:00,
2013-03-28 05:42:00,47.8,46.2,30.00,WSW,248,0.0,0.0,94,0.00,,OVC060,0.04,VWS V14.00,2013-03-28 12:42:00,
2013-03-28 05:45:00,47.8,46.2,30.00,SE,135,0.0,0.0,94,0.00,,OVC060,0.04,VWS V14.00,2013-03-28 12:45:00,
2013-03-28 05:46:00,47.8,46.2,30.00,SE,135,0.0,0.0,94,0.00,,OVC060,0.04,VWS V14.00,2013-03-28 12:46:00,
2013-03-28 05:48:00,47.8,46.2,30.00,SE,135,0.0,0.0,94,0.00,,OVC050,0.04,VWS V14.00,2013-03-28 12:48:00,
2013-03-28 05:50:00,47.8,46.2,30.00,SSW,202,0.0,0.0,94,0.00,,OVC050,0.04,VWS V14.00,2013-03-28 12:50:00,
2013-03-28 05:51:00,47.8,46.2,30.00,SSW,202,0.0,0.0,94,0.00,,OVC050,0.04,VWS V14.00,2013-03-28 12:51:00,
2013-03-28 05:53:00,47.8,46.2,30.00,WNW,292,0.0,0.0,94,0.00,,OVC050,0.04,VWS V14.00,2013-03-28 12:53:00,
2013-03-28 05:55:00,47.8,46.2,30.00,ENE,68,0.0,0.0,94,0.00,,OVC050,0.04,VWS V14.00,2013-03-28 12:55:00,
2013-03-28 05:56:00,47.8,46.2,30.00,ENE,68,0.0,0.0,94,0.00,,OVC050,0.04,VWS V14.00,2013-03-28 12:56:00,
2013-03-28 05:57:00,47.8,46.2,30.00,ENE,68,0.0,0.0,94,0.00,,OVC060,0.04,VWS V14.00,2013-03-28 12:57:00,
2013-03-28 05:58:00,47.8,46.2,30.00,WNW,292,0.0,0.0,94,0.00,,OVC050,0.04,VWS V14.00,2013-03-28 12:58:00,
2013-03-28 06:00:00,47.8,46.2,30.00,WNW,292,0.0,0.0,94,0.00,,OVC050,0.04,VWS V14.00,2013-03-28 13:00:00,
2013-03-28 06:01:00,47.8,46.2,30.00,WNW,292,0.0,0.0,94,0.00,,OVC050,0.04,VWS V14.00,2013-03-28 13:01:00,
2013-03-28 06:02:00,47.8,46.2,30.00,West,270,0.0,0.0,94,0.00,,OVC050,0.04,VWS V14.00,2013-03-28 13:02:00,
2013-03-28 06:03:00,47.7,46.0,30.00,WNW,292,0.0,0.0,94,0.00,,OVC050,0.04,VWS V14.00,2013-03-28 13:03:00,
2013-03-28 06:05:00,47.7,46.0,30.00,WSW,248,0.0,0.0,94,0.00,,OVC050,0.04,VWS V14.00,2013-03-28 13:05:00,
2013-03-28 06:06:00,47.7,46.0,30.00,WSW,248,0.0,0.0,94,0.00,,OVC050,0.04,VWS V14.00,2013-03-28 13:06:00,
2013-03-28 06:07:00,47.7,46.0,30.00,WSW,248,0.0,0.0,94,0.00,,OVC050,0.04,VWS V14.00,2013-03-28 13:07:00,
2013-03-28 06:08:00,47.7,46.0,30.00,WSW,248,0.0,0.0,94,0.00,,OVC050,0.04,VWS V14.00,2013-03-28 13:08:00,
2013-03-28 06:10:00,47.8,46.2,30.00,WSW,248,0.0,0.0,94,0.00,,OVC050,0.04,VWS V14.00,2013-03-28 13:10:00,
2013-03-28 06:11:00,47.7,46.0,30.00,SE,135,0.0,0.0,94,0.00,,OVC050,0.04,VWS V14.00,2013-03-28 13:11:00,
2013-03-28 06:12:00,47.7,46.0,30.00,ESE,112,0.0,0.0,94,0.00,,OVC050,0.04,VWS V14.00,2013-03-28 13:12:00,
2013-03-28 06:13:00,47.7,46.0,30.00,WNW,292,0.0,0.0,94,0.00,,OVC050,0.04,VWS V14.00,2013-03-28 13:13:00,
2013-03-28 06:15:00,47.8,46.2,30.00,East,90,0.0,0.0,94,0.00,,OVC050,0.04,VWS V14.00,2013-03-28 13:15:00,
2013-03-28 06:16:00,47.8,46.2,30.00,East,90,0.0,0.0,94,0.00,,OVC050,0.04,VWS V14.00,2013-03-28 13:16:00,
2013-03-28 06:17:00,47.7,46.0,30.00,East,90,0.0,0.0,94,0.00,,OVC050,0.04,VWS V14.00,2013-03-28 13:17:00,
2013-03-28 06:18:00,47.7,46.0,30.00,East,90,0.0,0.0,94,0.00,,OVC050,0.04,VWS V14.00,2013-03-28 13:18:00,
2013-03-28 06:20:00,47.8,46.2,30.03,East,90,0.0,0.0,94,0.00,,OVC050,0.04,VWS V14.00,2013-03-28 13:20:00,
2013-03-28 06:21:00,47.8,46.2,30.03,East,90,0.0,0.0,94,0.00,,OVC050,0.04,VWS V14.00,2013-03-28 13:21:00,
2013-03-28 06:22:00,47.8,46.2,30.03,East,90,0.0,0.0,94,0.00,,OVC050,0.04,VWS V14.00,2013-03-28 13:22:00,
2013-03-28 06:23:00,47.8,46.2,30.03,East,90,0.0,0.0,94,0.00,,OVC050,0.04,VWS V14.00,2013-03-28 13:23:00,
2013-03-28 06:25:00,47.8,46.2,30.03,East,90,0.0,0.0,94,0.00,,OVC050,0.04,VWS V14.00,2013-03-28 13:25:00,
2013-03-28 06:27:00,47.8,46.2,30.03,East,90,0.0,0.0,94,0.00,,OVC050,0.04,VWS V14.00,2013-03-28 13:27:00,
2013-03-28 06:28:00,47.8,46.2,30.03,East,90,0.0,0.0,94,0.00,,OVC050,0.04,VWS V14.00,2013-03-28 13:28:00,
2013-03-28 06:31:00,47.8,46.2,30.03,East,90,0.0,0.0,94,0.00,,OVC050,0.04,VWS V14.00,2013-03-28 13:31:00,
2013-03-28 06:32:00,47.8,46.2,30.03,East,90,0.0,0.0,94,0.00,,OVC011,0.04,VWS V14.00,2013-03-28 13:32:00,
2013-03-28 06:33:00,47.8,46.2,30.03,East,90,0.0,0.0,94,0.00,,OVC011,0.04,VWS V14.00,2013-03-28 13:33:00,
2013-03-28 06:36:00,47.8,46.2,30.03,East,90,0.0,0.0,94,0.00,,OVC011,0.04,VWS V14.00,2013-03-28 13:36:00,
2013-03-28 06:37:00,47.7,46.0,30.03,East,90,0.0,0.0,94,0.00,,OVC011,0.04,VWS V14.00,2013-03-28 13:37:00,
2013-03-28 06:38:00,47.7,46.0,30.03,East,90,0.0,0.0,94,0.00,,OVC011,0.04,VWS V14.00,2013-03-28 13:38:00,
2013-03-28 06:41:00,47.7,46.0,30.03,ESE,112,0.0,0.0,94,0.00,,OVC011,0.04,VWS V14.00,2013-03-28 13:41:00,
2013-03-28 06:42:00,47.7,46.0,30.03,ESE,112,0.0,0.0,94,0.00,,OVC011,0.04,VWS V14.00,2013-03-28 13:42:00,
2013-03-28 06:43:00,47.7,46.0,30.03,ESE,112,0.0,0.0,94,0.00,,OVC011,0.04,VWS V14.00,2013-03-28 13:43:00,
2013-03-28 06:47:00,47.7,46.0,30.03,ESE,112,0.0,0.0,94,0.00,,OVC011,0.04,VWS V14.00,2013-03-28 13:47:00,
2013-03-28 06:48:00,47.7,46.0,30.03,ESE,112,0.0,0.0,94,0.00,,OVC017,0.04,VWS V14.00,2013-03-28 13:48:00,
2013-03-28 06:52:00,47.7,46.0,30.03,ESE,112,0.0,0.0,94,0.00,,OVC017,0.04,VWS V14.00,2013-03-28 13:52:00,
2013-03-28 06:53:00,47.8,46.2,30.03,ESE,112,0.0,0.0,94,0.00,,OVC017,0.04,VWS V14.00,2013-03-28 13:53:00,
2013-03-28 06:57:00,47.8,46.2,30.03,ESE,112,0.0,0.0,94,0.00,,OVC017,0.04,VWS V14.00,2013-03-28 13:57:00,
2013-03-28 06:58:00,47.8,46.2,30.03,ESE,112,0.0,0.0,94,0.00,,OVC017,0.04,VWS V14.00,2013-03-28 13:58:00,
2013-03-28 07:02:00,47.8,46.2,30.03,ESE,112,0.0,0.0,94,0.00,,OVC017,0.04,VWS V14.00,2013-03-28 14:02:00,
2013-03-28 07:03:00,47.8,46.2,30.03,ESE,112,0.0,0.0,94,0.00,,OVC017,0.04,VWS V14.00,2013-03-28 14:03:00,
2013-03-28 07:07:00,48.0,46.4,30.03,NE,45,0.0,0.0,94,0.00,,OVC017,0.04,VWS V14.00,2013-03-28 14:07:00,
2013-03-28 07:08:00,48.0,46.4,30.03,NE,45,0.0,0.0,94,0.00,,OVC017,0.04,VWS V14.00,2013-03-28 14:08:00,
2013-03-28 07:12:00,48.0,46.7,30.03,NE,45,0.0,0.0,95,0.00,,OVC017,0.04,VWS V14.00,2013-03-28 14:12:00,
2013-03-28 07:13:00,48.0,46.7,30.03,NE,45,0.0,0.0,95,0.00,,OVC017,0.04,VWS V14.00,2013-03-28 14:13:00,
2013-03-28 07:17:00,48.2,46.6,30.03,NE,45,0.0,0.0,94,0.00,,OVC017,0.04,VWS V14.00,2013-03-28 14:17:00,
2013-03-28 07:18:00,48.2,46.6,30.03,NE,45,0.0,0.0,94,0.00,,OVC017,0.04,VWS V14.00,2013-03-28 14:18:00,
2013-03-28 07:22:00,48.2,46.6,30.03,NE,45,0.0,0.0,94,0.00,,OVC017,0.04,VWS V14.00,2013-03-28 14:22:00,
2013-03-28 07:23:00,48.2,46.6,30.03,NE,45,0.0,0.0,94,0.00,,OVC017,0.04,VWS V14.00,2013-03-28 14:23:00,
2013-03-28 07:27:00,48.2,46.6,30.03,NE,45,0.0,0.0,94,0.00,,OVC017,0.04,VWS V14.00,2013-03-28 14:27:00,
2013-03-28 07:28:00,48.2,46.6,30.03,NE,45,0.0,0.0,94,0.00,,OVC017,0.04,VWS V14.00,2013-03-28 14:28:00,
2013-03-28 07:33:00,48.0,46.4,30.03,NE,45,0.0,0.0,94,0.00,,OVC024,0.04,VWS V14.00,2013-03-28 14:33:00,
2013-03-28 07:38:00,48.0,46.4,30.03,ENE,68,0.0,0.0,94,0.00,,OVC024,0.04,VWS V14.00,2013-03-28 14:38:00,
2013-03-28 07:43:00,48.0,46.4,30.03,ENE,68,0.0,0.0,94,0.00,,OVC024,0.04,VWS V14.00,2013-03-28 14:43:00,
2013-03-28 07:48:00,48.2,46.6,30.03,East,90,0.0,0.0,94,0.00,,OVC031,0.04,VWS V14.00,2013-03-28 14:48:00,
2013-03-28 07:49:00,48.2,46.6,30.03,East,90,0.0,0.0,94,0.00,,OVC031,0.04,VWS V14.00,2013-03-28 14:49:00,
2013-03-28 07:53:00,48.4,46.7,30.03,East,90,0.0,0.0,94,0.00,,OVC031,0.04,VWS V14.00,2013-03-28 14:53:00,
2013-03-28 07:54:00,48.4,46.7,30.03,East,90,0.0,0.0,94,0.00,,OVC031,0.04,VWS V14.00,2013-03-28 14:54:00,
2013-03-28 07:58:00,48.6,47.2,30.03,East,90,0.0,0.0,95,0.00,,OVC031,0.04,VWS V14.00,2013-03-28 14:58:00,
2013-03-28 07:59:00,48.6,47.2,30.03,East,90,0.0,0.0,95,0.00,,OVC031,0.04,VWS V14.00,2013-03-28 14:59:00,
2013-03-28 08:03:00,48.6,46.9,30.03,NE,45,0.0,0.0,94,0.00,,OVC031,0.04,VWS V14.00,2013-03-28 15:03:00,
2013-03-28 08:04:00,48.6,46.9,30.03,NE,45,0.0,0.0,94,0.00,,OVC024,0.04,VWS V14.00,2013-03-28 15:04:00,
2013-03-28 08:08:00,48.6,46.9,30.03,NE,45,0.0,0.0,94,0.00,,OVC031,0.04,VWS V14.00,2013-03-28 15:08:00,
2013-03-28 08:09:00,48.6,46.9,30.03,NE,45,0.0,0.0,94,0.00,,OVC031,0.04,VWS V14.00,2013-03-28 15:09:00,
2013-03-28 08:13:00,48.6,46.9,30.03,NE,45,0.0,0.0,94,0.00,,OVC031,0.04,VWS V14.00,2013-03-28 15:13:00,
2013-03-28 08:14:00,48.6,46.9,30.03,NE,45,0.0,0.0,94,0.00,,OVC031,0.04,VWS V14.00,2013-03-28 15:14:00,
2013-03-28 08:18:00,48.7,47.1,30.03,ENE,68,0.0,0.0,94,0.00,,OVC031,0.04,VWS V14.00,2013-03-28 15:18:00,
2013-03-28 08:19:00,48.7,47.1,30.03,ENE,68,0.0,0.0,94,0.00,,OVC031,0.04,VWS V14.00,2013-03-28 15:19:00,
2013-03-28 08:23:00,48.7,47.1,30.06,ENE,68,0.0,0.0,94,0.00,,OVC031,0.04,VWS V14.00,2013-03-28 15:23:00,
2013-03-28 08:24:00,48.9,47.3,30.06,ENE,68,0.0,0.0,94,0.00,,OVC031,0.04,VWS V14.00,2013-03-28 15:24:00,
2013-03-28 08:28:00,48.9,47.3,30.06,ENE,68,0.0,0.0,94,0.00,,OVC031,0.04,VWS V14.00,2013-03-28 15:28:00,
2013-03-28 08:29:00,48.9,47.3,30.06,ENE,68,0.0,0.0,94,0.00,,OVC031,0.04,VWS V14.00,2013-03-28 15:29:00,
2013-03-28 08:33:00,48.9,47.3,30.06,ENE,68,0.0,0.0,94,0.00,,OVC090,0.04,VWS V14.00,2013-03-28 15:33:00,
2013-03-28 08:34:00,48.9,47.3,30.06,ENE,68,0.0,0.0,94,0.00,,OVC090,0.04,VWS V14.00,2013-03-28 15:34:00,
2013-03-28 08:38:00,48.7,47.1,30.06,East,90,1.6,1.6,94,0.00,,OVC090,0.04,VWS V14.00,2013-03-28 15:38:00,
2013-03-28 08:39:00,48.7,47.1,30.06,East,90,1.6,1.6,94,0.00,,OVC090,0.04,VWS V14.00,2013-03-28 15:39:00,
2013-03-28 08:43:00,48.7,46.8,30.06,East,90,0.0,2.5,93,0.00,,OVC090,0.04,VWS V14.00,2013-03-28 15:43:00,
2013-03-28 08:44:00,48.7,46.8,30.06,East,90,0.0,2.5,93,0.00,,OVC090,0.04,VWS V14.00,2013-03-28 15:44:00,
2013-03-28 08:48:00,48.7,47.1,30.06,East,90,0.0,2.5,94,0.00,,OVC090,0.04,VWS V14.00,2013-03-28 15:48:00,
2013-03-28 08:49:00,48.7,47.1,30.06,East,90,0.0,2.5,94,0.00,,OVC090,0.04,VWS V14.00,2013-03-28 15:49:00,
2013-03-28 08:53:00,49.1,47.5,30.06,NNW,338,0.0,2.5,94,0.00,,OVC090,0.04,VWS V14.00,2013-03-28 15:53:00,
2013-03-28 08:54:00,49.1,47.5,30.06,NNW,338,0.0,2.5,94,0.00,,OVC090,0.04,VWS V14.00,2013-03-28 15:54:00,
2013-03-28 08:58:00,49.5,48.1,30.06,NNW,338,0.0,2.0,95,0.00,,OVC090,0.04,VWS V14.00,2013-03-28 15:58:00,
2013-03-28 08:59:00,49.5,48.1,30.06,NNW,338,0.0,2.0,95,0.00,,OVC090,0.04,VWS V14.00,2013-03-28 15:59:00,
2013-03-28 09:03:00,50.0,48.3,30.06,SW,225,0.0,0.0,94,0.00,,OVC090,0.04,VWS V14.00,2013-03-28 16:03:00,
2013-03-28 09:04:00,50.0,48.3,30.06,WSW,248,0.0,0.0,94,0.00,,OVC100,0.04,VWS V14.00,2013-03-28 16:04:00,
2013-03-28 09:08:00,50.5,48.9,30.06,WSW,248,0.0,0.0,94,0.00,,OVC090,0.04,VWS V14.00,2013-03-28 16:08:00,
2013-03-28 09:09:00,50.5,48.9,30.06,NE,45,0.0,0.0,94,0.00,,OVC090,0.04,VWS V14.00,2013-03-28 16:09:00,
2013-03-28 09:10:00,50.5,48.9,30.06,NE,45,0.0,0.0,94,0.00,,OVC090,0.04,VWS V14.00,2013-03-28 16:10:00,
2013-03-28 09:13:00,50.9,49.0,30.06,WNW,292,0.0,0.0,93,0.00,,OVC090,0.04,VWS V14.00,2013-03-28 16:13:00,
2013-03-28 09:14:00,50.9,49.0,30.06,WNW,292,0.0,0.0,93,0.00,,OVC090,0.04,VWS V14.00,2013-03-28 16:14:00,
2013-03-28 09:15:00,51.1,49.1,30.06,WNW,292,0.0,0.0,93,0.00,,OVC090,0.04,VWS V14.00,2013-03-28 16:15:00,
2013-03-28 09:18:00,51.4,49.5,30.06,WNW,292,0.0,0.0,93,0.00,,OVC090,0.04,VWS V14.00,2013-03-28 16:18:00,
2013-03-28 09:19:00,51.4,49.5,30.06,WNW,292,0.0,0.0,93,0.00,,OVC090,0.04,VWS V14.00,2013-03-28 16:19:00,
2013-03-28 09:20:00,51.4,49.5,30.06,WNW,292,0.0,0.0,93,0.00,,OVC090,0.04,VWS V14.00,2013-03-28 16:20:00,
2013-03-28 09:23:00,51.6,49.7,30.06,WNW,292,0.0,0.0,93,0.00,,OVC090,0.04,VWS V14.00,2013-03-28 16:23:00,
2013-03-28 09:24:00,51.8,49.5,30.06,WSW,248,0.0,0.0,92,0.00,,OVC090,0.04,VWS V14.00,2013-03-28 16:24:00,
2013-03-28 09:25:00,51.8,49.5,30.06,WSW,248,0.0,0.0,92,0.00,,OVC090,0.04,VWS V14.00,2013-03-28 16:25:00,
2013-03-28 09:28:00,51.8,49.5,30.06,WNW,292,0.0,0.0,92,0.00,,OVC090,0.04,VWS V14.00,2013-03-28 16:28:00,
2013-03-28 09:29:00,51.8,49.5,30.06,WNW,292,0.0,0.0,92,0.00,,OVC090,0.04,VWS V14.00,2013-03-28 16:29:00,
2013-03-28 09:30:00,51.8,49.5,30.06,WSW,248,0.0,0.0,92,0.00,,OVC090,0.04,VWS V14.00,2013-03-28 16:30:00,
2013-03-28 09:33:00,51.6,49.4,30.06,WSW,248,0.0,1.3,92,0.00,,BKN090,0.04,VWS V14.00,2013-03-28 16:33:00,
2013-03-28 09:34:00,51.6,49.4,30.06,WSW,248,0.0,1.3,92,0.00,,BKN090,0.04,VWS V14.00,2013-03-28 16:34:00,
2013-03-28 09:35:00,51.6,49.4,30.06,NNW,338,0.0,1.3,92,0.00,,BKN090,0.04,VWS V14.00,2013-03-28 16:35:00,
2013-03-28 09:38:00,51.6,49.4,30.06,NNE,22,0.0,1.3,92,0.00,,BKN090,0.04,VWS V14.00,2013-03-28 16:38:00,
2013-03-28 09:39:00,51.6,49.4,30.06,NNE,22,0.0,1.3,92,0.00,,BKN090,0.04,VWS V14.00,2013-03-28 16:39:00,
2013-03-28 09:40:00,51.6,49.4,30.06,NNE,22,0.0,1.3,92,0.00,,BKN090,0.04,VWS V14.00,2013-03-28 16:40:00,
2013-03-28 09:44:00,51.6,49.4,30.06,NNW,338,0.0,1.3,92,0.00,,BKN090,0.04,VWS V14.00,2013-03-28 16:44:00,
2013-03-28 09:45:00,51.6,49.4,30.06,NNW,338,0.0,1.3,92,0.00,,BKN090,0.04,VWS V14.00,2013-03-28 16:45:00,
2013-03-28 09:49:00,52.0,49.4,30.06,NNW,338,0.0,0.0,91,0.00,,CLR,0.04,VWS V14.00,2013-03-28 16:49:00,
2013-03-28 09:50:00,52.0,49.4,30.06,NNW,338,0.0,0.0,91,0.00,,CLR,0.04,VWS V14.00,2013-03-28 16:50:00,
2013-03-28 09:54:00,52.3,49.8,30.06,NNW,338,0.0,0.0,91,0.00,,CLR,0.04,VWS V14.00,2013-03-28 16:54:00,
2013-03-28 09:55:00,52.3,49.8,30.06,NNW,338,0.0,0.0,91,0.00,,CLR,0.04,VWS V14.00,2013-03-28 16:55:00,
2013-03-28 09:59:00,52.2,49.3,30.06,WSW,248,0.0,0.0,90,0.00,,CLR,0.04,VWS V14.00,2013-03-28 16:59:00,
2013-03-28 10:00:00,52.2,49.3,30.06,WSW,248,0.0,0.0,90,0.00,,CLR,0.04,VWS V14.00,2013-03-28 17:00:00,
2013-03-28 10:04:00,52.2,49.3,30.06,West,270,0.0,0.0,90,0.00,,OVC080,0.04,VWS V14.00,2013-03-28 17:04:00,
2013-03-28 10:05:00,52.3,49.5,30.06,West,270,0.0,0.0,90,0.00,,CLR,0.04,VWS V14.00,2013-03-28 17:05:00,
2013-03-28 10:09:00,52.3,49.5,30.06,East,90,0.0,0.0,90,0.00,,CLR,0.04,VWS V14.00,2013-03-28 17:09:00,
2013-03-28 10:10:00,52.5,49.7,30.06,East,90,0.0,0.0,90,0.00,,CLR,0.04,VWS V14.00,2013-03-28 17:10:00,
2013-03-28 10:14:00,52.7,49.8,30.06,NNW,338,0.0,0.0,90,0.00,,CLR,0.04,VWS V14.00,2013-03-28 17:14:00,
2013-03-28 10:15:00,52.7,49.8,30.06,North,0,0.0,0.0,90,0.00,,CLR,0.04,VWS V14.00,2013-03-28 17:15:00,
2013-03-28 10:19:00,52.7,49.8,30.06,NE,45,0.0,2.0,90,0.00,,CLR,0.04,VWS V14.00,2013-03-28 17:19:00,
2013-03-28 10:20:00,52.7,49.8,30.06,NE,45,0.0,2.0,90,0.00,,CLR,0.04,VWS V14.00,2013-03-28 17:20:00,
2013-03-28 10:24:00,53.1,49.9,30.06,NE,45,0.0,2.0,89,0.00,,CLR,0.04,VWS V14.00,2013-03-28 17:24:00,
2013-03-28 10:25:00,53.1,49.9,30.06,East,90,0.0,2.0,89,0.00,,CLR,0.04,VWS V14.00,2013-03-28 17:25:00,
2013-03-28 10:29:00,53.4,50.3,30.06,ENE,68,0.0,2.0,89,0.00,,CLR,0.04,VWS V14.00,2013-03-28 17:29:00,
2013-03-28 10:30:00,53.4,50.3,30.06,ENE,68,0.0,2.0,89,0.00,,CLR,0.04,VWS V14.00,2013-03-28 17:30:00,
2013-03-28 10:34:00,53.6,50.1,30.06,NNE,22,0.0,0.9,88,0.00,,SCT100,0.04,VWS V14.00,2013-03-28 17:34:00,
2013-03-28 10:35:00,53.6,50.1,30.06,NNE,22,0.0,0.9,88,0.00,,SCT100,0.04,VWS V14.00,2013-03-28 17:35:00,
2013-03-28 10:39:00,53.6,50.1,30.06,ENE,68,0.0,0.0,88,0.00,,SCT100,0.04,VWS V14.00,2013-03-28 17:39:00,
2013-03-28 10:40:00,53.6,50.1,30.06,ENE,68,0.0,0.0,88,0.00,,SCT100,0.04,VWS V14.00,2013-03-28 17:40:00,
2013-03-28 10:44:00,54.0,50.2,30.06,NNW,338,0.0,0.9,87,0.00,,SCT100,0.04,VWS V14.00,2013-03-28 17:44:00,
2013-03-28 10:45:00,54.0,50.2,30.06,NNE,22,0.0,0.9,87,0.00,,SCT100,0.04,VWS V14.00,2013-03-28 17:45:00,
2013-03-28 10:49:00,54.1,50.4,30.06,NE,45,0.0,0.9,87,0.00,,SCT100,0.04,VWS V14.00,2013-03-28 17:49:00,
2013-03-28 10:50:00,54.1,50.4,30.06,NE,45,0.0,0.9,87,0.00,,SCT100,0.04,VWS V14.00,2013-03-28 17:50:00,
2013-03-28 10:55:00,54.5,50.4,30.06,North,0,0.0,0.9,86,0.00,,SCT100,0.04,VWS V14.00,2013-03-28 17:55:00,
2013-03-28 11:00:00,55.0,50.9,30.06,NNW,338,0.9,0.9,86,0.00,,SCT100,0.04,VWS V14.00,2013-03-28 18:00:00,
2013-03-28 11:05:00,55.4,51.3,30.06,NNE,22,0.0,0.9,86,0.00,,FEW016,0.04,VWS V14.00,2013-03-28 18:05:00,
2013-03-28 11:10:00,55.2,51.1,30.06,ENE,68,0.9,0.9,86,0.00,,SCT100,0.04,VWS V14.00,2013-03-28 18:10:00,
2013-03-28 11:15:00,55.4,51.3,30.06,NNE,22,0.0,0.0,86,0.00,,SCT100,0.04,VWS V14.00,2013-03-28 18:15:00,
2013-03-28 11:20:00,55.8,51.6,30.06,WNW,292,0.0,0.0,86,0.00,,SCT100,0.04,VWS V14.00,2013-03-28 18:20:00,
2013-03-28 11:25:00,55.9,51.5,30.06,North,0,0.0,0.0,85,0.00,,SCT100,0.04,VWS V14.00,2013-03-28 18:25:00,
2013-03-28 11:30:00,56.1,51.7,30.06,NNW,338,0.0,0.0,85,0.00,,SCT100,0.04,VWS V14.00,2013-03-28 18:30:00,
2013-03-28 11:35:00,56.3,51.9,30.06,NNW,338,0.0,0.0,85,0.00,,SCT100,0.04,VWS V14.00,2013-03-28 18:35:00,
2013-03-28 11:36:00,56.3,51.9,30.06,NNW,338,0.0,0.0,85,0.00,,SCT100,0.04,VWS V14.00,2013-03-28 18:36:00,
2013-03-28 11:40:00,56.7,52.2,30.06,NNW,338,0.0,0.0,85,0.00,,SCT100,0.04,VWS V14.00,2013-03-28 18:40:00,
2013-03-28 11:41:00,56.7,52.2,30.06,NNW,338,0.0,0.0,85,0.00,,SCT100,0.04,VWS V14.00,2013-03-28 18:41:00,
2013-03-28 11:45:00,56.8,52.4,30.06,NNW,338,0.0,0.0,85,0.00,,SCT100,0.04,VWS V14.00,2013-03-28 18:45:00,
2013-03-28 11:46:00,56.8,52.4,30.06,NNW,338,0.0,0.0,85,0.00,,SCT100,0.04,VWS V14.00,2013-03-28 18:46:00,
2013-03-28 11:50:00,56.8,52.4,30.06,WNW,292,0.0,0.0,85,0.00,,BKN100,0.04,VWS V14.00,2013-03-28 18:50:00,
2013-03-28 11:51:00,56.7,51.9,30.06,NNE,22,0.0,0.0,84,0.00,,BKN100,0.04,VWS V14.00,2013-03-28 18:51:00,
2013-03-28 11:55:00,56.8,52.1,30.06,SW,225,0.0,0.0,84,0.00,,BKN100,0.04,VWS V14.00,2013-03-28 18:55:00,
2013-03-28 11:56:00,56.8,52.1,30.06,WNW,292,0.0,0.0,84,0.00,,BKN100,0.04,VWS V14.00,2013-03-28 18:56:00,
2013-03-28 12:00:00,56.8,52.1,30.06,NE,45,0.0,0.0,84,0.00,,BKN100,0.04,VWS V14.00,2013-03-28 19:00:00,
2013-03-28 12:01:00,56.8,52.1,30.06,NE,45,0.0,0.0,84,0.00,,BKN100,0.04,VWS V14.00,2013-03-28 19:01:00,
2013-03-28 12:05:00,56.8,51.7,30.06,WNW,292,0.0,0.0,83,0.00,,BKN100,0.04,VWS V14.00,2013-03-28 19:05:00,
2013-03-28 12:06:00,56.8,51.7,30.06,NW,315,0.0,0.0,83,0.00,,BKN100,0.04,VWS V14.00,2013-03-28 19:06:00,
2013-03-28 12:10:00,57.6,52.4,30.06,NW,315,0.0,0.0,83,0.00,,BKN100,0.04,VWS V14.00,2013-03-28 19:10:00,
2013-03-28 12:11:00,57.6,52.4,30.06,NW,315,0.0,0.0,83,0.00,,BKN100,0.04,VWS V14.00,2013-03-28 19:11:00,
2013-03-28 12:15:00,57.6,52.1,30.06,WNW,292,0.0,1.1,82,0.00,,BKN100,0.04,VWS V14.00,2013-03-28 19:15:00,
2013-03-28 12:16:00,57.6,52.1,30.06,NW,315,0.0,1.1,82,0.00,,BKN100,0.04,VWS V14.00,2013-03-28 19:16:00,
2013-03-28 12:20:00,57.7,52.6,30.06,NNW,338,0.0,1.1,83,0.00,,BKN100,0.04,VWS V14.00,2013-03-28 19:20:00,
2013-03-28 12:21:00,57.6,52.1,30.06,North,0,0.0,1.1,82,0.00,,BKN100,0.04,VWS V14.00,2013-03-28 19:21:00,
2013-03-28 12:22:00,57.6,52.1,30.06,North,0,0.0,1.1,82,0.00,,BKN100,0.04,VWS V14.00,2013-03-28 19:22:00,
2013-03-28 12:25:00,57.6,52.1,30.06,NNE,22,0.0,2.0,82,0.00,,BKN100,0.04,VWS V14.00,2013-03-28 19:25:00,
2013-03-28 12:26:00,57.6,52.1,30.06,NNE,22,0.0,2.0,82,0.00,,BKN100,0.04,VWS V14.00,2013-03-28 19:26:00,
2013-03-28 12:27:00,57.7,52.3,30.06,WNW,292,1.3,2.0,82,0.00,,BKN100,0.04,VWS V14.00,2013-03-28 19:27:00,
2013-03-28 12:30:00,57.9,52.1,30.06,NNW,338,2.0,2.0,81,0.00,,BKN100,0.04,VWS V14.00,2013-03-28 19:30:00,
2013-03-28 12:31:00,57.9,52.1,30.06,West,270,0.0,2.0,81,0.00,,BKN100,0.04,VWS V14.00,2013-03-28 19:31:00,
2013-03-28 12:32:00,57.9,52.1,30.06,NNW,338,0.0,2.0,81,0.00,,OVC100,0.04,VWS V14.00,2013-03-28 19:32:00,
2013-03-28 12:35:00,58.1,52.3,30.06,NNE,22,0.0,2.0,81,0.00,,OVC100,0.04,VWS V14.00,2013-03-28 19:35:00,
2013-03-28 12:36:00,58.1,52.3,30.06,WSW,248,1.6,2.0,81,0.00,,OVC100,0.04,VWS V14.00,2013-03-28 19:36:00,
2013-03-28 12:37:00,58.1,52.0,30.06,NNW,338,0.0,2.0,80,0.00,,OVC100,0.04,VWS V14.00,2013-03-28 19:37:00,
2013-03-28 12:40:00,58.5,52.3,30.06,WNW,292,0.0,2.0,80,0.00,,OVC100,0.04,VWS V14.00,2013-03-28 19:40:00,
2013-03-28 12:41:00,58.5,52.3,30.06,WNW,292,0.0,2.0,80,0.00,,OVC100,0.04,VWS V14.00,2013-03-28 19:41:00,
2013-03-28 12:42:00,58.5,52.3,30.06,NNW,338,0.0,2.0,80,0.00,,OVC100,0.04,VWS V14.00,2013-03-28 19:42:00,
2013-03-28 12:45:00,58.5,52.3,30.06,NNW,338,0.0,2.0,80,0.00,,OVC100,0.04,VWS V14.00,2013-03-28 19:45:00,
2013-03-28 12:47:00,58.6,52.5,30.06,NNW,338,0.0,1.6,80,0.00,,BKN100,0.04,VWS V14.00,2013-03-28 19:47:00,
2013-03-28 12:50:00,58.8,52.3,30.06,North,0,0.0,1.6,79,0.00,,OVC100,0.04,VWS V14.00,2013-03-28 19:50:00,
2013-03-28 12:52:00,59.0,52.2,30.06,NW,315,0.0,1.6,78,0.00,,OVC100,0.04,VWS V14.00,2013-03-28 19:52:00,
2013-03-28 12:55:00,59.4,52.9,30.06,ESE,112,2.0,2.0,79,0.00,,OVC100,0.04,VWS V14.00,2013-03-28 19:55:00,
2013-03-28 12:57:00,59.4,52.5,30.06,NW,315,0.0,2.0,78,0.00,,OVC100,0.04,VWS V14.00,2013-03-28 19:57:00,
2013-03-28 13:00:00,59.7,52.9,30.06,NW,315,1.1,2.0,78,0.00,,OVC100,0.04,VWS V14.00,2013-03-28 20:00:00,
2013-03-28 13:02:00,59.5,52.7,30.06,North,0,0.0,2.0,78,0.00,,OVC100,0.04,VWS V14.00,2013-03-28 20:02:00,
2013-03-28 13:05:00,59.7,53.2,30.06,West,270,0.0,2.0,79,0.00,,OVC100,0.04,VWS V14.00,2013-03-28 20:05:00,
2013-03-28 13:07:00,59.7,52.9,30.06,WSW,248,1.3,2.0,78,0.00,,OVC100,0.04,VWS V14.00,2013-03-28 20:07:00,
2013-03-28 13:08:00,59.7,52.9,30.06,WSW,248,1.3,2.0,78,0.00,,OVC100,0.04,VWS V14.00,2013-03-28 20:08:00,
2013-03-28 13:10:00,59.4,52.5,30.06,WSW,248,3.4,3.4,78,0.00,,OVC100,0.04,VWS V14.00,2013-03-28 20:10:00,
2013-03-28 13:12:00,59.4,52.5,30.06,WNW,292,0.0,3.4,78,0.00,,OVC100,0.04,VWS V14.00,2013-03-28 20:12:00,
2013-03-28 13:13:00,59.4,52.5,30.06,WNW,292,0.0,3.4,78,0.00,,OVC100,0.04,VWS V14.00,2013-03-28 20:13:00,
2013-03-28 13:15:00,59.4,52.5,30.06,WNW,292,0.0,3.4,78,0.00,,OVC100,0.04,VWS V14.00,2013-03-28 20:15:00,
2013-03-28 13:17:00,59.4,52.5,30.06,WSW,248,2.5,3.4,78,0.00,,OVC100,0.04,VWS V14.00,2013-03-28 20:17:00,
2013-03-28 13:18:00,59.4,52.5,30.06,WSW,248,2.5,3.4,78,0.00,,OVC100,0.04,VWS V14.00,2013-03-28 20:18:00,
2013-03-28 13:20:00,59.4,52.2,30.06,WSW,248,0.0,3.4,77,0.00,,OVC100,0.04,VWS V14.00,2013-03-28 20:20:00,
2013-03-28 13:22:00,59.2,52.0,30.06,West,270,2.5,3.4,77,0.00,,OVC100,0.04,VWS V14.00,2013-03-28 20:22:00,
2013-03-28 13:23:00,59.2,52.0,30.06,West,270,2.5,3.4,77,0.00,,OVC100,0.04,VWS V14.00,2013-03-28 20:23:00,
2013-03-28 13:25:00,59.2,52.0,30.06,NNE,22,0.0,3.4,77,0.00,,OVC100,0.04,VWS V14.00,2013-03-28 20:25:00,
2013-03-28 13:28:00,59.5,52.3,30.06,NNE,22,0.0,2.5,77,0.00,,OVC100,0.04,VWS V14.00,2013-03-28 20:28:00,
2013-03-28 13:30:00,59.7,52.5,30.06,West,270,0.0,2.5,77,0.00,,OVC100,0.04,VWS V14.00,2013-03-28 20:30:00,
2013-03-28 13:33:00,59.7,52.5,30.06,WSW,248,1.1,2.5,77,0.00,,OVC090,0.04,VWS V14.00,2013-03-28 20:33:00,
2013-03-28 13:35:00,59.7,52.2,30.06,West,270,2.7,2.7,76,0.00,,OVC090,0.04,VWS V14.00,2013-03-28 20:35:00,
2013-03-28 13:38:00,59.7,52.2,30.06,WNW,292,0.0,2.9,76,0.00,,OVC090,0.04,VWS V14.00,2013-03-28 20:38:00,
2013-03-28 13:40:00,59.7,52.2,30.06,SW,225,0.0,2.9,76,0.00,,OVC090,0.04,VWS V14.00,2013-03-28 20:40:00,
2013-03-28 13:43:00,59.7,51.8,30.06,NW,315,0.0,2.9,75,0.00,,OVC090,0.04,VWS V14.00,2013-03-28 20:43:00,
2013-03-28 13:44:00,59.9,52.3,30.06,NW,315,0.0,2.9,76,0.00,,OVC090,0.04,VWS V14.00,2013-03-28 20:44:00,
2013-03-28 13:45:00,59.9,52.3,30.06,WNW,292,0.0,2.9,76,0.00,,OVC090,0.04,VWS V14.00,2013-03-28 20:45:00,
2013-03-28 13:48:00,60.1,52.5,30.06,WNW,292,0.0,2.9,76,0.00,,OVC090,0.04,VWS V14.00,2013-03-28 20:48:00,
2013-03-28 13:49:00,60.1,52.5,30.06,WNW,292,0.0,2.9,76,0.00,,OVC090,0.04,VWS V14.00,2013-03-28 20:49:00,
2013-03-28 13:50:00,60.1,52.5,30.06,West,270,0.0,2.9,76,0.00,,OVC090,0.04,VWS V14.00,2013-03-28 20:50:00,
2013-03-28 13:53:00,60.1,52.1,30.06,West,270,0.0,2.9,75,0.00,,OVC090,0.04,VWS V14.00,2013-03-28 20:53:00,
2013-03-28 13:54:00,60.1,52.1,30.06,WNW,292,0.0,2.9,75,0.00,,OVC090,0.04,VWS V14.00,2013-03-28 20:54:00,
2013-03-28 13:56:00,60.1,52.1,30.06,WNW,292,0.0,2.5,75,0.00,,OVC090,0.04,VWS V14.00,2013-03-28 20:56:00,
2013-03-28 13:58:00,60.1,52.1,30.06,WNW,292,4.3,4.3,75,0.00,,OVC090,0.04,VWS V14.00,2013-03-28 20:58:00,
2013-03-28 13:59:00,60.1,52.1,30.06,WNW,292,0.0,4.3,75,0.00,,OVC090,0.04,VWS V14.00,2013-03-28 20:59:00,
2013-03-28 14:01:00,60.1,52.1,30.06,NW,315,0.0,4.3,75,0.00,,OVC090,0.04,VWS V14.00,2013-03-28 21:01:00,
2013-03-28 14:03:00,60.3,52.3,30.06,WNW,292,0.0,4.3,75,0.00,,OVC090,0.04,VWS V14.00,2013-03-28 21:03:00,
2013-03-28 14:04:00,60.3,52.3,30.06,WSW,248,1.1,4.3,75,0.00,,OVC090,0.04,VWS V14.00,2013-03-28 21:04:00,
2013-03-28 14:06:00,60.3,52.0,30.06,WNW,292,0.0,4.3,74,0.00,,OVC090,0.04,VWS V14.00,2013-03-28 21:06:00,
2013-03-28 14:08:00,60.4,52.1,30.06,NW,315,0.0,4.3,74,0.00,,OVC090,0.04,VWS V14.00,2013-03-28 21:08:00,
2013-03-28 14:09:00,60.4,52.1,30.06,WNW,292,0.0,4.3,74,0.00,,OVC090,0.04,VWS V14.00,2013-03-28 21:09:00,
2013-03-28 14:11:00,60.4,52.1,30.06,WNW,292,0.0,4.3,74,0.00,,OVC090,0.04,VWS V14.00,2013-03-28 21:11:00,
2013-03-28 14:13:00,60.6,52.3,30.06,NNE,22,0.0,4.3,74,0.00,,OVC090,0.04,VWS V14.00,2013-03-28 21:13:00,
2013-03-28 14:14:00,60.8,52.5,30.06,NNE,22,0.0,4.3,74,0.00,,OVC090,0.04,VWS V14.00,2013-03-28 21:14:00,
2013-03-28 14:16:00,60.8,52.5,30.06,ENE,68,0.0,4.3,74,0.00,,BKN100,0.04,VWS V14.00,2013-03-28 21:16:00,
2013-03-28 14:18:00,60.6,51.9,30.06,ESE,112,0.0,2.5,73,0.00,,OVC090,0.04,VWS V14.00,2013-03-28 21:18:00,
2013-03-28 14:19:00,60.6,51.9,30.06,WNW,292,0.0,2.5,73,0.00,,OVC090,0.04,VWS V14.00,2013-03-28 21:19:00,
2013-03-28 14:21:00,60.8,51.7,30.06,West,270,0.0,2.5,72,0.00,,OVC090,0.04,VWS V14.00,2013-03-28 21:21:00,
2013-03-28 14:23:00,60.8,51.7,30.06,West,270,0.0,2.5,72,0.00,,OVC090,0.04,VWS V14.00,2013-03-28 21:23:00,
2013-03-28 14:24:00,61.0,51.9,30.06,NW,315,0.0,2.5,72,0.00,,OVC090,0.04,VWS V14.00,2013-03-28 21:24:00,
2013-03-28 14:26:00,61.0,51.9,30.06,NNW,338,0.0,2.5,72,0.00,,OVC090,0.04,VWS V14.00,2013-03-28 21:26:00,
2013-03-28 14:28:00,61.0,51.9,30.06,NW,315,0.9,2.5,72,0.00,,OVC090,0.04,VWS V14.00,2013-03-28 21:28:00,
2013-03-28 14:29:00,61.0,51.9,30.06,NNW,338,0.0,2.5,72,0.00,,OVC090,0.04,VWS V14.00,2013-03-28 21:29:00,
2013-03-28 14:32:00,61.0,51.9,30.06,West,270,0.0,0.9,72,0.00,,BKN090,0.04,VWS V14.00,2013-03-28 21:32:00,
2013-03-28 14:33:00,61.0,51.9,30.06,West,270,0.0,0.9,72,0.00,,BKN090,0.04,VWS V14.00,2013-03-28 21:33:00,
2013-03-28 14:34:00,61.0,51.9,30.06,West,270,0.0,0.9,72,0.00,,BKN090,0.04,VWS V14.00,2013-03-28 21:34:00,
2013-03-28 14:37:00,61.2,52.1,30.06,WSW,248,0.0,0.9,72,0.00,,BKN090,0.04,VWS V14.00,2013-03-28 21:37:00,
2013-03-28 14:38:00,61.2,51.7,30.06,NNW,338,0.0,0.9,71,0.00,,BKN090,0.04,VWS V14.00,2013-03-28 21:38:00,
2013-03-28 14:39:00,61.2,51.7,30.06,WNW,292,0.0,0.9,71,0.00,,BKN090,0.04,VWS V14.00,2013-03-28 21:39:00,
2013-03-28 14:42:00,61.2,51.7,30.06,NNE,22,0.0,0.9,71,0.00,,BKN090,0.04,VWS V14.00,2013-03-28 21:42:00,
2013-03-28 14:43:00,61.2,51.7,30.06,NNE,22,0.0,0.9,71,0.00,,BKN090,0.04,VWS V14.00,2013-03-28 21:43:00,
2013-03-28 14:44:00,61.2,51.7,30.06,NNE,22,0.0,0.0,71,0.00,,BKN090,0.04,VWS V14.00,2013-03-28 21:44:00,
2013-03-28 14:47:00,61.0,51.5,30.06,WNW,292,0.0,0.0,71,0.00,,BKN090,0.04,VWS V14.00,2013-03-28 21:47:00,
2013-03-28 14:48:00,61.0,51.5,30.06,WNW,292,0.0,0.0,71,0.00,,OVC090,0.04,VWS V14.00,2013-03-28 21:48:00,
2013-03-28 14:49:00,61.0,51.9,30.06,WNW,292,0.0,0.0,72,0.00,,OVC090,0.04,VWS V14.00,2013-03-28 21:49:00,
2013-03-28 14:52:00,61.0,51.1,30.06,WNW,292,0.0,0.9,70,0.00,,OVC090,0.04,VWS V14.00,2013-03-28 21:52:00,
2013-03-28 14:53:00,61.0,51.1,30.06,WNW,292,0.0,0.9,70,0.00,,OVC090,0.04,VWS V14.00,2013-03-28 21:53:00,
2013-03-28 14:54:00,61.0,51.1,30.06,WNW,292,1.1,1.1,70,0.00,,OVC090,0.04,VWS V14.00,2013-03-28 21:54:00,
2013-03-28 14:57:00,60.6,51.2,30.06,WNW,292,0.0,2.2,71,0.00,,OVC090,0.04,VWS V14.00,2013-03-28 21:57:00,
2013-03-28 14:58:00,60.6,51.2,30.06,WSW,248,0.0,2.2,71,0.00,,OVC090,0.04,VWS V14.00,2013-03-28 21:58:00,
2013-03-28 14:59:00,60.6,51.2,30.06,WSW,248,0.0,2.2,71,0.00,,OVC090,0.04,VWS V14.00,2013-03-28 21:59:00,
2013-03-28 15:00:00,60.6,51.6,30.06,West,270,1.3,2.2,72,0.00,,OVC090,0.04,VWS V14.00,2013-03-28 22:00:00,
2013-03-28 15:03:00,60.4,51.4,30.06,WNW,292,0.0,2.2,72,0.00,,OVC090,0.04,VWS V14.00,2013-03-28 22:03:00,
2013-03-28 15:04:00,60.4,51.8,30.06,NNW,338,0.0,2.2,73,0.00,,OVC090,0.04,VWS V14.00,2013-03-28 22:04:00,
2013-03-28 15:05:00,60.4,51.8,30.06,SE,135,0.0,2.2,73,0.00,,OVC090,0.04,VWS V14.00,2013-03-28 22:05:00,
2013-03-28 15:08:00,60.1,51.4,30.06,North,0,0.0,2.2,73,0.00,,OVC090,0.04,VWS V14.00,2013-03-28 22:08:00,
2013-03-28 15:09:00,60.1,51.4,30.06,West,270,0.0,2.2,73,0.00,,OVC090,0.04,VWS V14.00,2013-03-28 22:09:00,
2013-03-28 15:10:00,60.1,51.4,30.06,SSE,158,0.0,2.2,73,0.00,,OVC090,0.04,VWS V14.00,2013-03-28 22:10:00,
2013-03-28 15:12:00,59.7,51.1,30.06,WNW,292,2.0,2.2,73,0.00,,OVC090,0.04,VWS V14.00,2013-03-28 22:12:00,
2013-03-28 15:14:00,59.7,51.4,30.06,NNW,338,0.0,2.2,74,0.00,,OVC090,0.04,VWS V14.00,2013-03-28 22:14:00,
2013-03-28 15:15:00,59.7,51.4,30.06,NW,315,0.0,2.0,74,0.00,,OVC090,0.04,VWS V14.00,2013-03-28 22:15:00,
2013-03-28 15:18:00,59.4,50.7,30.06,West,270,1.3,2.9,73,0.00,,OVC090,0.04,VWS V14.00,2013-03-28 22:18:00,
2013-03-28 15:19:00,59.4,50.3,30.06,WNW,292,0.9,2.9,72,0.00,,OVC090,0.04,VWS V14.00,2013-03-28 22:19:00,
2013-03-28 15:20:00,59.4,50.3,30.06,WNW,292,1.6,2.9,72,0.00,,OVC090,0.04,VWS V14.00,2013-03-28 22:20:00,
2013-03-28 15:23:00,59.2,49.8,30.06,WSW,248,1.6,3.4,71,0.00,,OVC090,0.04,VWS V14.00,2013-03-28 22:23:00,
2013-03-28 15:24:00,59.2,49.8,30.06,WSW,248,0.0,3.4,71,0.00,,OVC090,0.04,VWS V14.00,2013-03-28 22:24:00,
2013-03-28 15:25:00,59.4,50.3,30.06,WSW,248,0.0,3.4,72,0.00,,OVC090,0.04,VWS V14.00,2013-03-28 22:25:00,
2013-03-28 15:28:00,59.4,50.0,30.06,WNW,292,1.3,3.4,71,0.00,,OVC090,0.04,VWS V14.00,2013-03-28 22:28:00,
2013-03-28 15:29:00,59.4,50.0,30.06,WNW,292,0.0,3.4,71,0.00,,OVC090,0.04,VWS V14.00,2013-03-28 22:29:00,
2013-03-28 15:30:00,59.5,50.1,30.06,SSW,202,0.0,3.4,71,0.00,,OVC090,0.04,VWS V14.00,2013-03-28 22:30:00,
2013-03-28 15:33:00,59.4,50.0,30.06,WSW,248,0.0,3.4,71,0.00,,OVC065,0.04,VWS V14.00,2013-03-28 22:33:00,
2013-03-28 15:34:00,59.4,50.0,30.06,WNW,292,0.0,3.4,71,0.00,,OVC065,0.04,VWS V14.00,2013-03-28 22:34:00,
2013-03-28 15:35:00,59.4,49.6,30.03,NW,315,0.0,3.4,70,0.00,,OVC065,0.04,VWS V14.00,2013-03-28 22:35:00,
2013-03-28 15:38:00,59.4,49.6,30.03,West,270,0.0,2.7,70,0.00,,OVC065,0.04,VWS V14.00,2013-03-28 22:38:00,
2013-03-28 15:39:00,59.5,49.8,30.03,WNW,292,0.0,2.7,70,0.00,,OVC065,0.04,VWS V14.00,2013-03-28 22:39:00,
2013-03-28 15:40:00,59.5,49.8,30.03,WNW,292,0.0,2.7,70,0.00,,OVC065,0.04,VWS V14.00,2013-03-28 22:40:00,
2013-03-28 15:43:00,60.1,49.9,30.03,West,270,0.0,2.0,69,0.00,,OVC065,0.04,VWS V14.00,2013-03-28 22:43:00,
2013-03-28 15:44:00,60.1,49.9,30.03,West,270,0.0,2.0,69,0.00,,OVC065,0.04,VWS V14.00,2013-03-28 22:44:00,
2013-03-28 15:45:00,60.1,49.9,30.03,WNW,292,0.0,2.0,69,0.00,,OVC065,0.04,VWS V14.00,2013-03-28 22:45:00,
2013-03-28 15:48:00,60.3,49.3,30.03,SW,225,0.0,2.0,67,0.00,,OVC065,0.04,VWS V14.00,2013-03-28 22:48:00,
2013-03-28 15:49:00,60.3,48.9,30.03,SW,225,0.0,2.0,66,0.00,,OVC065,0.04,VWS V14.00,2013-03-28 22:49:00,
2013-03-28 15:50:00,60.3,48.9,30.03,SW,225,0.0,2.0,66,0.00,,OVC065,0.04,VWS V14.00,2013-03-28 22:50:00,
2013-03-28 15:53:00,60.1,48.7,30.03,East,90,0.0,2.0,66,0.00,,OVC065,0.04,VWS V14.00,2013-03-28 22:53:00,
2013-03-28 15:54:00,59.9,48.5,30.03,East,90,0.0,2.0,66,0.00,,OVC065,0.04,VWS V14.00,2013-03-28 22:54:00,
2013-03-28 15:55:00,59.9,48.5,30.03,NNW,338,0.0,2.0,66,0.00,,OVC065,0.04,VWS V14.00,2013-03-28 22:55:00,
2013-03-28 15:58:00,60.1,48.3,30.03,NNW,338,0.9,0.9,65,0.00,,OVC065,0.04,VWS V14.00,2013-03-28 22:58:00,
2013-03-28 15:59:00,60.1,48.7,30.03,NNW,338,0.0,0.9,66,0.00,,OVC065,0.04,VWS V14.00,2013-03-28 22:59:00,
2013-03-28 16:00:00,60.1,48.7,30.03,NNW,338,0.0,0.9,66,0.00,,OVC065,0.04,VWS V14.00,2013-03-28 23:00:00,
2013-03-28 16:03:00,60.1,49.1,30.03,NNW,338,0.0,0.9,67,0.00,,OVC065,0.04,VWS V14.00,2013-03-28 23:03:00,
2013-03-28 16:04:00,60.1,49.1,30.03,NNE,22,0.0,0.9,67,0.00,,OVC065,0.04,VWS V14.00,2013-03-28 23:04:00,
2013-03-28 16:05:00,59.9,48.5,30.03,NNE,22,0.0,0.9,66,0.00,,OVC065,0.04,VWS V14.00,2013-03-28 23:05:00,
2013-03-28 16:08:00,60.1,48.3,30.03,NNW,338,0.0,0.9,65,0.00,,OVC065,0.04,VWS V14.00,2013-03-28 23:08:00,
2013-03-28 16:09:00,60.1,48.3,30.03,NNW,338,0.0,0.9,65,0.00,,OVC065,0.04,VWS V14.00,2013-03-28 23:09:00,
2013-03-28 16:10:00,60.1,48.3,30.03,NNW,338,0.0,0.9,65,0.00,,OVC065,0.04,VWS V14.00,2013-03-28 23:10:00,
2013-03-28 16:13:00,60.1,48.3,30.03,NNW,338,0.0,0.9,65,0.00,,OVC065,0.04,VWS V14.00,2013-03-28 23:13:00,
2013-03-28 16:15:00,60.1,48.3,30.03,NNW,338,0.0,0.9,65,0.00,,OVC065,0.04,VWS V14.00,2013-03-28 23:15:00,
2013-03-28 16:19:00,60.1,47.9,30.03,NNW,338,0.0,0.0,64,0.00,,OVC065,0.04,VWS V14.00,2013-03-28 23:19:00,
2013-03-28 16:20:00,60.3,48.0,30.03,NNW,338,0.0,0.0,64,0.00,,OVC065,0.04,VWS V14.00,2013-03-28 23:20:00,
2013-03-28 16:24:00,60.4,48.6,30.03,NNW,338,0.0,0.0,65,0.00,,OVC065,0.04,VWS V14.00,2013-03-28 23:24:00,
2013-03-28 16:25:00,60.4,48.6,30.03,NNW,338,0.0,0.0,65,0.00,,OVC065,0.04,VWS V14.00,2013-03-28 23:25:00,
2013-03-28 16:29:00,60.6,48.8,30.03,NNW,338,0.0,0.0,65,0.00,,OVC065,0.04,VWS V14.00,2013-03-28 23:29:00,
2013-03-28 16:30:00,60.6,48.4,30.03,North,0,0.0,0.0,64,0.00,,OVC065,0.04,VWS V14.00,2013-03-28 23:30:00,
2013-03-28 16:34:00,60.6,48.4,30.03,NW,315,0.0,0.0,64,0.00,,BKN100,0.04,VWS V14.00,2013-03-28 23:34:00,
2013-03-28 16:35:00,60.8,48.6,30.03,WNW,292,0.0,0.0,64,0.00,,BKN100,0.04,VWS V14.00,2013-03-28 23:35:00,
2013-03-28 16:39:00,60.8,47.7,30.03,West,270,0.0,0.0,62,0.00,,BKN100,0.04,VWS V14.00,2013-03-28 23:39:00,
2013-03-28 16:40:00,60.8,47.7,30.03,West,270,0.0,0.0,62,0.00,,BKN100,0.04,VWS V14.00,2013-03-28 23:40:00,
2013-03-28 16:44:00,61.0,48.7,30.03,SSE,158,0.0,0.0,64,0.00,,BKN100,0.04,VWS V14.00,2013-03-28 23:44:00,
2013-03-28 16:45:00,61.0,48.7,30.03,SSW,202,0.0,0.0,64,0.00,,BKN100,0.04,VWS V14.00,2013-03-28 23:45:00,
2013-03-28 16:49:00,61.0,48.3,30.03,WNW,292,0.0,1.6,63,0.00,,BKN100,0.04,VWS V14.00,2013-03-28 23:49:00,
2013-03-28 16:50:00,61.0,48.3,30.03,WNW,292,0.0,1.6,63,0.00,,BKN100,0.04,VWS V14.00,2013-03-28 23:50:00,
2013-03-28 16:54:00,61.0,48.7,30.03,WNW,292,0.0,1.6,64,0.00,,BKN100,0.04,VWS V14.00,2013-03-28 23:54:00,
2013-03-28 16:55:00,61.2,48.9,30.03,WNW,292,0.9,1.6,64,0.00,,BKN100,0.04,VWS V14.00,2013-03-28 23:55:00,
2013-03-28 16:59:00,61.3,48.7,30.03,NNE,22,0.0,1.6,63,0.00,,BKN100,0.04,VWS V14.00,2013-03-28 23:59:00,
2013-03-28 17:00:00,61.3,49.1,30.03,NNW,338,0.0,1.6,64,0.00,,BKN100,0.04,VWS V14.00,2013-03-29 00:00:00,
2013-03-28 17:04:00,61.5,48.4,30.03,WNW,292,1.6,2.9,62,0.00,,OVC110,0.04,VWS V14.00,2013-03-29 00:04:00,
2013-03-28 17:05:00,61.3,48.2,30.03,WNW,292,0.0,2.9,62,0.00,,OVC110,0.04,VWS V14.00,2013-03-29 00:05:00,
2013-03-28 17:09:00,61.5,48.0,30.03,West,270,0.0,2.9,61,0.00,,OVC110,0.04,VWS V14.00,2013-03-29 00:09:00,
2013-03-28 17:10:00,61.3,47.3,30.03,WNW,292,0.0,2.9,60,0.00,,OVC110,0.04,VWS V14.00,2013-03-29 00:10:00,
2013-03-28 17:14:00,61.3,46.9,30.03,SSW,202,0.0,2.9,59,0.00,,OVC110,0.04,VWS V14.00,2013-03-29 00:14:00,
2013-03-28 17:15:00,61.3,46.9,30.03,WNW,292,1.1,2.9,59,0.00,,OVC110,0.04,VWS V14.00,2013-03-29 00:15:00,
2013-03-28 17:19:00,61.3,46.5,30.03,WNW,292,2.0,2.9,58,0.00,,OVC110,0.04,VWS V14.00,2013-03-29 00:19:00,
2013-03-28 17:20:00,61.3,46.5,30.06,West,270,0.0,2.0,58,0.00,,OVC110,0.04,VWS V14.00,2013-03-29 00:20:00,
2013-03-28 17:24:00,61.2,46.3,30.06,WNW,292,0.0,2.2,58,0.00,,OVC110,0.04,VWS V14.00,2013-03-29 00:24:00,
2013-03-28 17:25:00,61.2,46.3,30.06,West,270,0.0,2.2,58,0.00,,OVC110,0.04,VWS V14.00,2013-03-29 00:25:00,
2013-03-28 17:26:00,61.2,46.3,30.06,West,270,0.0,2.2,58,0.00,,OVC110,0.04,VWS V14.00,2013-03-29 00:26:00,
2013-03-28 17:29:00,61.0,46.1,30.06,WNW,292,0.0,2.2,58,0.00,,OVC110,0.04,VWS V14.00,2013-03-29 00:29:00,
2013-03-28 17:30:00,61.0,46.1,30.06,West,270,0.0,2.2,58,0.00,,OVC110,0.04,VWS V14.00,2013-03-29 00:30:00,
2013-03-28 17:31:00,61.0,46.1,30.06,WNW,292,0.0,2.2,58,0.00,,OVC110,0.04,VWS V14.00,2013-03-29 00:31:00,
2013-03-28 17:34:00,61.0,46.6,30.06,NNE,22,0.0,2.2,59,0.00,,OVC100,0.04,VWS V14.00,2013-03-29 00:34:00,
2013-03-28 17:35:00,60.8,46.8,30.03,WNW,292,0.0,2.2,60,0.00,,OVC100,0.04,VWS V14.00,2013-03-29 00:35:00,
2013-03-28 17:36:00,60.8,46.8,30.03,WNW,292,0.0,2.2,60,0.00,,OVC100,0.04,VWS V14.00,2013-03-29 00:36:00,
2013-03-28 17:39:00,60.6,47.1,30.03,WNW,292,0.0,3.1,61,0.00,,OVC100,0.04,VWS V14.00,2013-03-29 00:39:00,
2013-03-28 17:40:00,60.6,47.1,30.03,WNW,292,0.0,3.1,61,0.00,,OVC100,0.04,VWS V14.00,2013-03-29 00:40:00,
2013-03-28 17:41:00,60.6,47.1,30.03,WNW,292,0.0,3.1,61,0.00,,OVC100,0.04,VWS V14.00,2013-03-29 00:41:00,
2013-03-28 17:44:00,60.3,47.2,30.03,East,90,3.8,3.8,62,0.00,,OVC100,0.04,VWS V14.00,2013-03-29 00:44:00,
2013-03-28 17:46:00,60.1,47.5,30.03,WSW,248,0.0,3.8,63,0.00,,OVC100,0.04,VWS V14.00,2013-03-29 00:46:00,
2013-03-28 17:49:00,59.7,47.5,30.03,WSW,248,0.0,3.8,64,0.00,,OVC100,0.04,VWS V14.00,2013-03-29 00:49:00,
2013-03-28 17:51:00,59.7,47.5,30.03,WNW,292,0.0,3.8,64,0.00,,OVC100,0.04,VWS V14.00,2013-03-29 00:51:00,
2013-03-28 17:54:00,59.5,47.4,30.06,ESE,112,1.3,3.8,64,0.00,,OVC100,0.04,VWS V14.00,2013-03-29 00:54:00,
2013-03-28 17:56:00,59.5,47.4,30.06,ESE,112,1.3,3.8,64,0.00,,OVC100,0.04,VWS V14.00,2013-03-29 00:56:00,
2013-03-28 17:59:00,59.5,48.2,30.06,NNE,22,0.0,3.8,66,0.00,,OVC100,0.04,VWS V14.00,2013-03-29 00:59:00,
2013-03-28 18:01:00,59.5,48.2,30.06,WSW,248,1.1,3.8,66,0.00,,OVC100,0.04,VWS V14.00,2013-03-29 01:01:00,
2013-03-28 18:04:00,59.7,48.0,30.06,WNW,292,0.0,2.7,65,0.00,,OVC100,0.04,VWS V14.00,2013-03-29 01:04:00,
2013-03-28 18:06:00,59.7,48.0,30.03,WNW,292,1.3,2.5,65,0.00,,OVC100,0.04,VWS V14.00,2013-03-29 01:06:00,
2013-03-28 18:07:00,59.7,48.0,30.03,WNW,292,0.0,2.5,65,0.00,,OVC100,0.04,VWS V14.00,2013-03-29 01:07:00,
2013-03-28 18:09:00,59.7,48.0,30.03,West,270,0.0,2.5,65,0.00,,OVC100,0.04,VWS V14.00,2013-03-29 01:09:00,
2013-03-28 18:11:00,59.7,48.4,30.03,WNW,292,0.0,2.5,66,0.00,,OVC100,0.04,VWS V14.00,2013-03-29 01:11:00,
2013-03-28 18:12:00,59.7,48.4,30.03,ENE,68,0.0,2.5,66,0.00,,OVC100,0.04,VWS V14.00,2013-03-29 01:12:00,
2013-03-28 18:14:00,59.7,48.4,30.03,ENE,68,0.0,1.3,66,0.00,,OVC100,0.04,VWS V14.00,2013-03-29 01:14:00,
2013-03-28 18:16:00,59.7,48.4,30.03,ENE,68,0.0,0.0,66,0.00,,OVC100,0.04,VWS V14.00,2013-03-29 01:16:00,
2013-03-28 18:17:00,59.7,48.4,30.03,WNW,292,0.0,0.0,66,0.00,,OVC100,0.04,VWS V14.00,2013-03-29 01:17:00,
2013-03-28 18:19:00,59.7,48.0,30.03,SSW,202,1.3,1.3,65,0.00,,OVC100,0.04,VWS V14.00,2013-03-29 01:19:00,
2013-03-28 18:21:00,59.5,47.8,30.03,WSW,248,0.0,1.3,65,0.00,,OVC100,0.04,VWS V14.00,2013-03-29 01:21:00,
2013-03-28 18:22:00,59.5,47.8,30.03,WSW,248,2.0,2.0,65,0.00,,OVC100,0.04,VWS V14.00,2013-03-29 01:22:00,
2013-03-28 18:24:00,59.4,47.6,30.03,West,270,0.0,2.0,65,0.00,,OVC100,0.04,VWS V14.00,2013-03-29 01:24:00,
2013-03-28 18:26:00,59.4,47.6,30.03,West,270,0.0,2.0,65,0.00,,OVC100,0.04,VWS V14.00,2013-03-29 01:26:00,
2013-03-28 18:27:00,59.4,47.6,30.03,SSW,202,0.0,2.0,65,0.00,,OVC100,0.04,VWS V14.00,2013-03-29 01:27:00,
2013-03-28 18:28:00,59.4,47.6,30.03,SSW,202,0.0,2.0,65,0.00,,OVC100,0.04,VWS V14.00,2013-03-29 01:28:00,
2013-03-28 18:29:00,59.4,47.6,30.03,South,180,0.0,2.0,65,0.00,,OVC100,0.04,VWS V14.00,2013-03-29 01:29:00,
2013-03-28 18:32:00,59.2,47.4,30.03,WSW,248,0.0,0.0,65,0.00,,BKN090,0.04,VWS V14.00,2013-03-29 01:32:00,
2013-03-28 18:33:00,59.2,47.4,30.03,WNW,292,0.0,0.0,65,0.00,,BKN090,0.04,VWS V14.00,2013-03-29 01:33:00,
2013-03-28 18:34:00,59.0,47.7,30.03,WSW,248,0.0,0.0,66,0.00,,BKN090,0.04,VWS V14.00,2013-03-29 01:34:00,
2013-03-28 18:38:00,58.8,47.9,30.06,SW,225,0.0,0.0,67,0.00,,BKN090,0.04,VWS V14.00,2013-03-29 01:38:00,
2013-03-28 18:40:00,58.8,47.9,30.06,West,270,0.0,0.0,67,0.00,,BKN090,0.04,VWS V14.00,2013-03-29 01:40:00,
2013-03-28 18:43:00,58.8,47.9,30.06,NE,45,0.0,0.0,67,0.00,,BKN090,0.04,VWS V14.00,2013-03-29 01:43:00,
2013-03-28 18:45:00,58.6,47.7,30.06,ESE,112,0.0,0.0,67,0.00,,BKN090,0.04,VWS V14.00,2013-03-29 01:45:00,
2013-03-28 18:48:00,58.5,47.6,30.06,East,90,0.0,0.0,67,0.00,,BKN095,0.04,VWS V14.00,2013-03-29 01:48:00,
2013-03-28 18:50:00,58.5,47.6,30.06,East,90,0.0,0.0,67,0.00,,BKN095,0.04,VWS V14.00,2013-03-29 01:50:00,
2013-03-28 18:53:00,57.9,47.0,30.06,SSE,158,0.0,0.0,67,0.00,,BKN095,0.04,VWS V14.00,2013-03-29 01:53:00,
2013-03-28 18:55:00,57.9,46.6,30.06,East,90,0.0,0.0,66,0.00,,BKN095,0.04,VWS V14.00,2013-03-29 01:55:00,
2013-03-28 18:58:00,57.9,46.6,30.06,ESE,112,1.3,1.3,66,0.00,,BKN095,0.04,VWS V14.00,2013-03-29 01:58:00,
2013-03-28 18:59:00,57.9,46.6,30.06,North,0,0.0,1.3,66,0.00,,BKN095,0.04,VWS V14.00,2013-03-29 01:59:00,
2013-03-28 19:00:00,57.7,46.9,30.06,North,0,0.0,1.3,67,0.00,,BKN095,0.04,VWS V14.00,2013-03-29 02:00:00,
2013-03-28 19:03:00,57.7,46.9,30.06,SE,135,0.0,1.3,67,0.00,,BKN095,0.04,VWS V14.00,2013-03-29 02:03:00,
2013-03-28 19:04:00,57.6,46.7,30.06,SE,135,0.0,0.0,67,0.00,,BKN095,0.04,VWS V14.00,2013-03-29 02:04:00,
2013-03-28 19:05:00,57.6,46.7,30.06,ESE,112,0.0,0.0,67,0.00,,BKN095,0.04,VWS V14.00,2013-03-29 02:05:00,
2013-03-28 19:08:00,57.4,46.5,30.06,East,90,0.0,0.0,67,0.00,,BKN095,0.04,VWS V14.00,2013-03-29 02:08:00,
2013-03-28 19:09:00,57.2,46.4,30.06,SE,135,0.0,0.0,67,0.00,,BKN095,0.04,VWS V14.00,2013-03-29 02:09:00,
2013-03-28 19:10:00,57.2,46.4,30.06,SE,135,0.0,0.0,67,0.00,,BKN095,0.04,VWS V14.00,2013-03-29 02:10:00,
2013-03-28 19:13:00,57.0,46.6,30.06,ESE,112,0.0,0.0,68,0.00,,BKN095,0.04,VWS V14.00,2013-03-29 02:13:00,
2013-03-28 19:14:00,57.0,46.6,30.06,ESE,112,0.0,0.0,68,0.00,,BKN095,0.04,VWS V14.00,2013-03-29 02:14:00,
2013-03-28 19:15:00,57.0,46.6,30.06,East,90,0.0,0.0,68,0.00,,BKN095,0.04,VWS V14.00,2013-03-29 02:15:00,
2013-03-28 19:18:00,57.0,46.6,30.06,South,180,0.0,0.0,68,0.00,,BKN095,0.04,VWS V14.00,2013-03-29 02:18:00,
2013-03-28 19:19:00,57.0,46.6,30.06,South,180,0.0,0.0,68,0.00,,BKN095,0.04,VWS V14.00,2013-03-29 02:19:00,
2013-03-28 19:20:00,56.8,46.4,30.06,NNE,22,0.0,0.0,68,0.00,,BKN095,0.04,VWS V14.00,2013-03-29 02:20:00,
2013-03-28 19:23:00,57.0,46.6,30.06,WSW,248,0.0,0.0,68,0.00,,BKN095,0.04,VWS V14.00,2013-03-29 02:23:00,
2013-03-28 19:24:00,57.0,46.6,30.06,NE,45,0.0,0.0,68,0.00,,BKN095,0.04,VWS V14.00,2013-03-29 02:24:00,
2013-03-28 19:25:00,56.8,46.4,30.06,NE,45,0.0,0.0,68,0.00,,BKN095,0.04,VWS V14.00,2013-03-29 02:25:00,
2013-03-28 19:28:00,56.5,46.1,30.06,ENE,68,0.0,0.0,68,0.00,,BKN095,0.04,VWS V14.00,2013-03-29 02:28:00,
2013-03-28 19:29:00,56.5,46.1,30.06,ENE,68,0.0,0.0,68,0.00,,BKN095,0.04,VWS V14.00,2013-03-29 02:29:00,
2013-03-28 19:30:00,56.5,46.1,30.06,ENE,68,0.0,0.0,68,0.00,,BKN095,0.04,VWS V14.00,2013-03-29 02:30:00,
2013-03-28 19:33:00,56.3,46.3,30.06,ENE,68,0.0,0.0,69,0.00,,FEW095,0.04,VWS V14.00,2013-03-29 02:33:00,
2013-03-28 19:34:00,56.3,46.3,30.06,ENE,68,0.0,0.0,69,0.00,,FEW095,0.04,VWS V14.00,2013-03-29 02:34:00,
2013-03-28 19:35:00,56.3,46.3,30.06,NNE,22,0.0,0.0,69,0.00,,FEW095,0.04,VWS V14.00,2013-03-29 02:35:00,
2013-03-28 19:38:00,56.1,46.1,30.06,ESE,112,0.0,0.0,69,0.00,,FEW095,0.04,VWS V14.00,2013-03-29 02:38:00,
2013-03-28 19:39:00,55.9,45.5,30.06,ESE,112,0.0,0.0,68,0.00,,FEW095,0.04,VWS V14.00,2013-03-29 02:39:00,
2013-03-28 19:40:00,55.9,45.5,30.06,SE,135,0.0,0.0,68,0.00,,FEW095,0.04,VWS V14.00,2013-03-29 02:40:00,
2013-03-28 19:43:00,55.8,45.8,30.06,East,90,0.0,0.0,69,0.00,,FEW095,0.04,VWS V14.00,2013-03-29 02:43:00,
2013-03-28 19:44:00,55.8,45.8,30.06,East,90,0.0,0.0,69,0.00,,FEW095,0.04,VWS V14.00,2013-03-29 02:44:00,
2013-03-28 19:45:00,55.8,45.8,30.06,West,270,0.0,0.0,69,0.00,,FEW095,0.04,VWS V14.00,2013-03-29 02:45:00,
2013-03-28 19:48:00,55.8,45.8,30.06,ESE,112,0.0,0.0,69,0.00,,BKN095,0.04,VWS V14.00,2013-03-29 02:48:00,
2013-03-28 19:49:00,55.8,45.8,30.06,SE,135,0.0,0.0,69,0.00,,BKN095,0.04,VWS V14.00,2013-03-29 02:49:00,
2013-03-28 19:50:00,55.6,45.6,30.06,ESE,112,0.0,0.0,69,0.00,,BKN095,0.04,VWS V14.00,2013-03-29 02:50:00,
2013-03-28 19:53:00,55.4,45.4,30.06,East,90,0.0,0.0,69,0.00,,BKN095,0.04,VWS V14.00,2013-03-29 02:53:00,
2013-03-28 19:54:00,55.4,45.4,30.06,East,90,0.0,0.0,69,0.00,,BKN095,0.04,VWS V14.00,2013-03-29 02:54:00,
2013-03-28 19:55:00,55.2,45.6,30.06,ENE,68,0.0,0.0,70,0.00,,BKN095,0.04,VWS V14.00,2013-03-29 02:55:00,
2013-03-28 19:58:00,55.2,46.0,30.06,East,90,0.0,0.0,71,0.00,,BKN095,0.04,VWS V14.00,2013-03-29 02:58:00,
2013-03-28 19:59:00,55.2,46.0,30.06,East,90,0.0,0.0,71,0.00,,BKN095,0.04,VWS V14.00,2013-03-29 02:59:00,
2013-03-28 20:00:00,55.0,45.8,30.06,East,90,0.0,0.0,71,0.00,,BKN095,0.04,VWS V14.00,2013-03-29 03:00:00,
2013-03-28 20:04:00,54.9,45.7,30.06,SE,135,0.0,0.0,71,0.00,,BKN095,0.04,VWS V14.00,2013-03-29 03:04:00,
2013-03-28 20:05:00,54.9,45.7,30.06,ESE,112,0.0,0.0,71,0.00,,BKN095,0.04,VWS V14.00,2013-03-29 03:05:00,
2013-03-28 20:09:00,54.9,45.7,30.06,East,90,0.0,0.0,71,0.00,,BKN095,0.04,VWS V14.00,2013-03-29 03:09:00,
2013-03-28 20:10:00,54.9,45.7,30.06,East,90,0.0,0.0,71,0.00,,BKN095,0.04,VWS V14.00,2013-03-29 03:10:00,
2013-03-28 20:14:00,54.7,45.8,30.06,ESE,112,0.0,0.0,72,0.00,,BKN095,0.04,VWS V14.00,2013-03-29 03:14:00,
2013-03-28 20:15:00,54.7,45.8,30.06,ESE,112,0.0,0.0,72,0.00,,BKN095,0.04,VWS V14.00,2013-03-29 03:15:00,
2013-03-28 20:19:00,54.7,45.8,30.06,SSW,202,0.0,0.0,72,0.00,,BKN095,0.04,VWS V14.00,2013-03-29 03:19:00,
2013-03-28 20:20:00,54.7,45.8,30.06,WSW,248,0.0,0.0,72,0.00,,BKN095,0.04,VWS V14.00,2013-03-29 03:20:00,
2013-03-28 20:24:00,54.7,45.8,30.06,SSW,202,0.0,0.0,72,0.00,,BKN095,0.04,VWS V14.00,2013-03-29 03:24:00,
2013-03-28 20:25:00,54.7,45.8,30.06,South,180,0.0,0.0,72,0.00,,BKN095,0.04,VWS V14.00,2013-03-29 03:25:00,
2013-03-28 20:29:00,54.7,45.8,30.06,WSW,248,0.0,0.0,72,0.00,,BKN095,0.04,VWS V14.00,2013-03-29 03:29:00,
2013-03-28 20:30:00,54.7,45.8,30.06,WSW,248,0.0,0.0,72,0.00,,BKN095,0.04,VWS V14.00,2013-03-29 03:30:00,
2013-03-28 20:34:00,54.7,46.2,30.06,SSW,202,0.0,0.0,73,0.00,,BKN080,0.04,VWS V14.00,2013-03-29 03:34:00,
2013-03-28 20:35:00,54.7,46.2,30.09,SSE,158,0.0,0.0,73,0.00,,BKN080,0.04,VWS V14.00,2013-03-29 03:35:00,
2013-03-28 20:39:00,54.7,46.2,30.09,ESE,112,0.0,0.0,73,0.00,,BKN080,0.04,VWS V14.00,2013-03-29 03:39:00,
2013-03-28 20:40:00,54.7,46.2,30.09,ESE,112,0.0,0.0,73,0.00,,BKN080,0.04,VWS V14.00,2013-03-29 03:40:00,
2013-03-28 20:44:00,54.7,46.2,30.09,SSE,158,0.0,0.0,73,0.00,,BKN080,0.04,VWS V14.00,2013-03-29 03:44:00,
2013-03-28 20:45:00,54.7,46.2,30.09,SSW,202,0.0,0.0,73,0.00,,BKN080,0.04,VWS V14.00,2013-03-29 03:45:00,
2013-03-28 20:49:00,54.5,46.0,30.09,WSW,248,0.9,2.5,73,0.00,,OVC070,0.04,VWS V14.00,2013-03-29 03:49:00,
2013-03-28 20:50:00,54.7,46.2,30.09,WSW,248,0.0,2.5,73,0.00,,OVC070,0.04,VWS V14.00,2013-03-29 03:50:00,
2013-03-28 20:54:00,54.5,46.0,30.09,ESE,112,0.0,2.5,73,0.00,,OVC070,0.04,VWS V14.00,2013-03-29 03:54:00,
2013-03-28 20:55:00,54.5,46.4,30.09,ESE,112,0.0,2.5,74,0.00,,OVC070,0.04,VWS V14.00,2013-03-29 03:55:00,
2013-03-28 20:56:00,54.5,46.4,30.09,ESE,112,0.0,2.5,74,0.00,,OVC070,0.04,VWS V14.00,2013-03-29 03:56:00,
2013-03-28 20:59:00,54.3,46.2,30.09,East,90,0.0,2.5,74,0.00,,OVC070,0.04,VWS V14.00,2013-03-29 03:59:00,
2013-03-28 21:00:00,54.3,46.2,30.09,East,90,0.0,2.5,74,0.00,,OVC070,0.04,VWS V14.00,2013-03-29 04:00:00,
2013-03-28 21:05:00,54.3,46.2,30.09,South,180,0.0,2.5,74,0.00,,OVC070,0.04,VWS V14.00,2013-03-29 04:05:00,
2013-03-28 21:10:00,54.3,46.2,30.09,West,270,0.0,0.0,74,0.00,,OVC070,0.04,VWS V14.00,2013-03-29 04:10:00,
2013-03-28 21:15:00,54.1,46.0,30.09,SW,225,0.0,0.0,74,0.00,,OVC070,0.04,VWS V14.00,2013-03-29 04:15:00,
2013-03-28 21:20:00,54.1,46.4,30.09,SSW,202,0.0,0.0,75,0.00,,OVC070,0.04,VWS V14.00,2013-03-29 04:20:00,
2013-03-28 21:25:00,53.8,46.0,30.09,ESE,112,0.0,0.0,75,0.00,,OVC070,0.04,VWS V14.00,2013-03-29 04:25:00,
2013-03-28 21:30:00,53.8,46.0,30.09,SE,135,0.0,0.0,75,0.00,,OVC070,0.04,VWS V14.00,2013-03-29 04:30:00,
2013-03-28 21:35:00,53.8,46.0,30.12,East,90,0.0,0.0,75,0.00,,OVC070,0.04,VWS V14.00,2013-03-29 04:35:00,
2013-03-28 21:40:00,53.6,45.9,30.12,SE,135,0.0,0.0,75,0.00,,OVC070,0.04,VWS V14.00,2013-03-29 04:40:00,
2013-03-28 21:45:00,53.4,46.1,30.12,ESE,112,0.0,0.0,76,0.00,,OVC070,0.04,VWS V14.00,2013-03-29 04:45:00,
2013-03-28 21:50:00,53.2,45.9,30.12,ESE,112,0.0,0.0,76,0.00,,OVC070,0.04,VWS V14.00,2013-03-29 04:50:00,
2013-03-28 21:55:00,53.2,45.9,30.12,ESE,112,0.0,0.0,76,0.00,,OVC070,0.04,VWS V14.00,2013-03-29 04:55:00,
2013-03-28 22:00:00,53.1,46.0,30.12,NNE,22,0.0,0.0,77,0.00,,OVC070,0.04,VWS V14.00,2013-03-29 05:00:00,
2013-03-28 22:05:00,52.9,45.9,30.12,ESE,112,0.0,0.0,77,0.00,,OVC070,0.04,VWS V14.00,2013-03-29 05:05:00,
2013-03-28 22:10:00,52.9,45.9,30.12,East,90,0.0,0.0,77,0.00,,OVC070,0.04,VWS V14.00,2013-03-29 05:10:00,
2013-03-28 22:15:00,52.7,45.7,30.12,West,270,0.0,0.0,77,0.00,,OVC070,0.04,VWS V14.00,2013-03-29 05:15:00,
2013-03-28 22:16:00,52.7,45.7,30.12,ESE,112,0.0,0.0,77,0.00,,OVC070,0.04,VWS V14.00,2013-03-29 05:16:00,
2013-03-28 22:20:00,52.7,45.7,30.12,SE,135,0.0,0.0,77,0.00,,OVC070,0.04,VWS V14.00,2013-03-29 05:20:00,
2013-03-28 22:21:00,52.7,45.7,30.12,SE,135,0.0,0.0,77,0.00,,OVC070,0.04,VWS V14.00,2013-03-29 05:21:00,
2013-03-28 22:25:00,52.5,45.5,30.12,East,90,0.0,0.0,77,0.00,,OVC070,0.04,VWS V14.00,2013-03-29 05:25:00,
2013-03-28 22:26:00,52.5,45.5,30.12,East,90,0.0,0.0,77,0.00,,OVC070,0.04,VWS V14.00,2013-03-29 05:26:00,
2013-03-28 22:30:00,52.5,45.5,30.12,East,90,0.0,0.0,77,0.00,,OVC070,0.04,VWS V14.00,2013-03-29 05:30:00,
2013-03-28 22:31:00,52.5,45.5,30.12,East,90,0.0,0.0,77,0.00,,OVC075,0.04,VWS V14.00,2013-03-29 05:31:00,
2013-03-28 22:35:00,52.5,45.9,30.12,East,90,0.0,0.0,78,0.00,,OVC070,0.04,VWS V14.00,2013-03-29 05:35:00,
2013-03-28 22:37:00,52.5,45.9,30.12,East,90,0.0,0.0,78,0.00,,OVC070,0.04,VWS V14.00,2013-03-29 05:37:00,
2013-03-28 22:40:00,52.3,45.7,30.12,East,90,0.0,0.0,78,0.00,,OVC070,0.04,VWS V14.00,2013-03-29 05:40:00,
2013-03-28 22:41:00,52.3,45.7,30.12,East,90,0.0,0.0,78,0.00,,OVC070,0.04,VWS V14.00,2013-03-29 05:41:00,
2013-03-28 22:43:00,52.3,45.7,30.12,East,90,0.0,0.0,78,0.00,,OVC070,0.04,VWS V14.00,2013-03-29 05:43:00,
2013-03-28 22:45:00,52.3,45.7,30.12,East,90,0.0,0.0,78,0.00,,OVC070,0.04,VWS V14.00,2013-03-29 05:45:00,
2013-03-28 22:46:00,52.3,45.7,30.12,East,90,0.0,0.0,78,0.00,,OVC070,0.04,VWS V14.00,2013-03-29 05:46:00,
2013-03-28 22:48:00,52.3,45.7,30.12,East,90,0.0,0.0,78,0.00,,OVC100,0.04,VWS V14.00,2013-03-29 05:48:00,
2013-03-28 22:50:00,52.3,45.7,30.12,East,90,0.0,0.0,78,0.00,,OVC100,0.04,VWS V14.00,2013-03-29 05:50:00,
2013-03-28 22:51:00,52.3,45.7,30.12,East,90,0.0,0.0,78,0.00,,OVC100,0.04,VWS V14.00,2013-03-29 05:51:00,
2013-03-28 22:53:00,52.3,45.7,30.12,East,90,0.0,0.0,78,0.00,,OVC100,0.04,VWS V14.00,2013-03-29 05:53:00,
2013-03-28 22:55:00,52.3,45.7,30.12,East,90,0.0,0.0,78,0.00,,OVC100,0.04,VWS V14.00,2013-03-29 05:55:00,
2013-03-28 22:56:00,52.3,45.7,30.12,East,90,0.0,0.0,78,0.00,,OVC100,0.04,VWS V14.00,2013-03-29 05:56:00,
2013-03-28 22:58:00,52.3,45.7,30.12,East,90,0.0,0.0,78,0.00,,OVC100,0.04,VWS V14.00,2013-03-29 05:58:00,
2013-03-28 23:00:00,52.2,45.8,30.12,East,90,0.0,0.0,79,0.00,,OVC100,0.04,VWS V14.00,2013-03-29 06:00:00,
2013-03-28 23:01:00,52.2,45.8,30.12,East,90,0.0,0.0,79,0.00,,OVC100,0.04,VWS V14.00,2013-03-29 06:01:00,
2013-03-28 23:03:00,52.2,45.8,30.12,East,90,0.0,0.0,79,0.00,,OVC100,0.04,VWS V14.00,2013-03-29 06:03:00,
2013-03-28 23:05:00,52.2,45.8,30.12,East,90,0.0,0.0,79,0.00,,OVC100,0.04,VWS V14.00,2013-03-29 06:05:00,
2013-03-28 23:06:00,52.2,45.8,30.12,East,90,0.0,0.0,79,0.00,,OVC100,0.04,VWS V14.00,2013-03-29 06:06:00,
2013-03-28 23:08:00,52.2,46.2,30.12,SE,135,0.0,0.0,80,0.00,,OVC100,0.04,VWS V14.00,2013-03-29 06:08:00,
2013-03-28 23:10:00,52.0,46.0,30.12,East,90,0.0,0.0,80,0.00,,OVC100,0.04,VWS V14.00,2013-03-29 06:10:00,
2013-03-28 23:11:00,52.0,46.0,30.12,East,90,0.0,0.0,80,0.00,,OVC100,0.04,VWS V14.00,2013-03-29 06:11:00,
2013-03-28 23:13:00,52.0,46.0,30.12,East,90,0.0,0.0,80,0.00,,OVC100,0.04,VWS V14.00,2013-03-29 06:13:00,
2013-03-28 23:15:00,52.0,45.7,30.12,East,90,0.0,0.0,79,0.00,,OVC100,0.04,VWS V14.00,2013-03-29 06:15:00,
2013-03-28 23:16:00,52.0,45.7,30.12,East,90,0.0,0.0,79,0.00,,OVC100,0.04,VWS V14.00,2013-03-29 06:16:00,
2013-03-28 23:17:00,52.0,45.7,30.12,East,90,0.0,0.0,79,0.00,,OVC100,0.04,VWS V14.00,2013-03-29 06:17:00,
2013-03-28 23:18:00,52.0,45.7,30.12,East,90,0.0,0.0,79,0.00,,OVC100,0.04,VWS V14.00,2013-03-29 06:18:00,
2013-03-28 23:21:00,52.0,45.7,30.12,East,90,0.0,0.0,79,0.00,,OVC100,0.04,VWS V14.00,2013-03-29 06:21:00,
2013-03-28 23:22:00,52.0,45.7,30.12,East,90,0.0,0.0,79,0.00,,OVC100,0.04,VWS V14.00,2013-03-29 06:22:00,
2013-03-28 23:23:00,52.0,46.0,30.12,East,90,0.0,0.0,80,0.00,,OVC100,0.04,VWS V14.00,2013-03-29 06:23:00,
2013-03-28 23:26:00,52.0,46.0,30.12,East,90,0.0,0.0,80,0.00,,OVC100,0.04,VWS V14.00,2013-03-29 06:26:00,
2013-03-28 23:27:00,52.0,46.0,30.12,East,90,0.0,0.0,80,0.00,,OVC100,0.04,VWS V14.00,2013-03-29 06:27:00,
2013-03-28 23:28:00,52.0,46.0,30.12,East,90,0.0,0.0,80,0.00,,OVC100,0.04,VWS V14.00,2013-03-29 06:28:00,
2013-03-28 23:31:00,52.0,46.0,30.12,East,90,0.0,0.0,80,0.00,,OVC100,0.04,VWS V14.00,2013-03-29 06:31:00,
2013-03-28 23:32:00,52.0,46.0,30.12,East,90,0.0,0.0,80,0.00,,OVC070,0.04,VWS V14.00,2013-03-29 06:32:00,
2013-03-28 23:33:00,52.0,46.0,30.12,East,90,0.0,0.0,80,0.00,,OVC070,0.04,VWS V14.00,2013-03-29 06:33:00,
2013-03-28 23:36:00,52.0,46.0,30.12,East,90,0.0,0.0,80,0.00,,OVC070,0.04,VWS V14.00,2013-03-29 06:36:00,
2013-03-28 23:37:00,52.0,46.3,30.12,East,90,0.0,0.0,81,0.00,,OVC070,0.04,VWS V14.00,2013-03-29 06:37:00,
2013-03-28 23:38:00,52.0,46.3,30.12,East,90,0.0,0.0,81,0.00,,OVC070,0.04,VWS V14.00,2013-03-29 06:38:00,
2013-03-28 23:41:00,51.8,46.2,30.12,East,90,0.0,0.0,81,0.00,,OVC070,0.04,VWS V14.00,2013-03-29 06:41:00,
2013-03-28 23:42:00,51.8,46.2,30.12,East,90,0.0,0.0,81,0.00,,OVC070,0.04,VWS V14.00,2013-03-29 06:42:00,
2013-03-28 23:43:00,51.8,46.2,30.12,East,90,0.0,0.0,81,0.00,,OVC070,0.04,VWS V14.00,2013-03-29 06:43:00,
2013-03-28 23:47:00,51.8,46.2,30.12,East,90,0.0,0.0,81,0.00,,OVC070,0.04,VWS V14.00,2013-03-29 06:47:00,
2013-03-28 23:48:00,51.6,46.3,30.12,East,90,0.0,0.0,82,0.00,,OVC070,0.04,VWS V14.00,2013-03-29 06:48:00,
2013-03-28 23:52:00,51.6,46.3,30.12,East,90,0.0,0.0,82,0.00,,OVC070,0.04,VWS V14.00,2013-03-29 06:52:00,
2013-03-28 23:53:00,51.6,46.3,30.12,East,90,0.0,0.0,82,0.00,,OVC070,0.04,VWS V14.00,2013-03-29 06:53:00,
2013-03-28 23:57:00,51.6,46.3,30.12,WSW,248,0.0,0.0,82,0.00,,OVC070,0.04,VWS V14.00,2013-03-29 06:57:00,
2013-03-28 23:58:00,51.6,46.3,30.12,WSW,248,0.0,0.0,82,0.00,,OVC070,0.04,VWS V14.00,2013-03-29 06:58:00,
2013-03-28 23:59:00,51.6,46.3,30.12,SSE,158,0.0,0.0,82,0.00,,OVC070,0.04,VWS V14.00,2013-03-29 06:59:00,